Observation data for Coyanosa on 03/09/2018      Previous  Date  Next       Current Mesonet Observations  Soil Data  Daily Summary Page  Observations in Plain Language
KCO1 090600Z 13010KT 14/00 A2991 RMK A01 T01360000  RH  039%=      5-min Rain = 0
KCO1 090601Z 13010KT 14/00 A2991 RMK A01 T01370001  RH  039%=      5-min Rain = 0
KCO1 090602Z 13010KT 14/00 A2991 RMK A01 T01370001  RH  039%=      5-min Rain = 0
KCO1 090603Z 13010KT 14/00 A2991 RMK A01 T01370001  RH  039%=      5-min Rain = 0
KCO1 090604Z 13010KT 14/00 A2991 RMK A01 T01380001  RH  039%=      5-min Rain = 0
KCO1 090605Z 13011KT 14/00 A2991 RMK A01 T01380001  RH  039%=      5-min Rain = 0
KCO1 090606Z 13011KT 14/00 A2991 RMK A01 T01390002  RH  039%=      5-min Rain = 0
KCO1 090607Z 14012KT 14/00 A2991 RMK A01 T01390002  RH  039%=      5-min Rain = 0
KCO1 090608Z 14010KT 14/00 A2991 RMK A01 T01390002  RH  039%=      5-min Rain = 0
KCO1 090609Z 13011KT 14/00 A2991 RMK A01 T01390002  RH  039%=      5-min Rain = 0
KCO1 090610Z 13010KT 14/00 A2991 RMK A01 T01390002  RH  039%=      5-min Rain = 0
KCO1 090611Z 13010KT 14/00 A2991 RMK A01 T01390002  RH  039%=      5-min Rain = 0
KCO1 090612Z 13009KT 14/00 A2991 RMK A01 T01380002  RH  039%=      5-min Rain = 0
KCO1 090613Z 13009KT 14/00 A2991 RMK A01 T01380002  RH  039%=      5-min Rain = 0
KCO1 090614Z 13009KT 14/00 A2991 RMK A01 T01380002  RH  039%=      5-min Rain = 0
KCO1 090615Z 13009KT 14/00 A2991 RMK A01 T01380002  RH  039%=      5-min Rain = 0
KCO1 090616Z 12009KT 14/00 A2991 RMK A01 T01380002  RH  039%=      5-min Rain = 0
KCO1 090617Z 12009KT 14/00 A2991 RMK A01 T01370001  RH  039%=      5-min Rain = 0
KCO1 090618Z 12009KT 14/00 A2991 RMK A01 T01370001  RH  039%=      5-min Rain = 0
KCO1 090619Z 11009KT 14/00 A2991 RMK A01 T01360001  RH  040%=      5-min Rain = 0
KCO1 090620Z 12007KT 14/00 A2991 RMK A01 T01360001  RH  040%=      5-min Rain = 0
KCO1 090621Z 11007KT 14/00 A2991 RMK A01 T01350001  RH  040%=      5-min Rain = 0
KCO1 090622Z 11008KT 14/00 A2991 RMK A01 T01350001  RH  040%=      5-min Rain = 0
KCO1 090623Z 11007KT 14/00 A2991 RMK A01 T01350001  RH  040%=      5-min Rain = 0
KCO1 090624Z 11006KT 14/00 A2991 RMK A01 T01350001  RH  040%=      5-min Rain = 0
KCO1 090625Z 11006KT 13/00 A2991 RMK A01 T01340001  RH  040%=      5-min Rain = 0
KCO1 090626Z 11007KT 13/00 A2991 RMK A01 T01330001  RH  040%=      5-min Rain = 0
KCO1 090627Z 10006KT 13/00 A2991 RMK A01 T01320000  RH  040%=      5-min Rain = 0
KCO1 090628Z 10006KT 13/00 A2991 RMK A01 T01320000  RH  040%=      5-min Rain = 0
KCO1 090629Z 10006KT 13/00 A2991 RMK A01 T01310000  RH  041%=      5-min Rain = 0
KCO1 090630Z 11006KT 13/00 A2991 RMK A01 T013000-0  RH  041%=      5-min Rain = 0
KCO1 090631Z 11006KT 13/M00 A2991 RMK A01 T01291001  RH  041%=      5-min Rain = 0
KCO1 090632Z 11005KT 13/00 A2991 RMK A01 T01290000  RH  041%=      5-min Rain = 0
KCO1 090633Z 11006KT 13/00 A2991 RMK A01 T012800-0  RH  041%=      5-min Rain = 0
KCO1 090634Z 12006KT 13/00 A2991 RMK A01 T01280000  RH  042%=      5-min Rain = 0
KCO1 090635Z 12006KT 13/00 A2991 RMK A01 T01280001  RH  042%=      5-min Rain = 0
KCO1 090636Z 12006KT 13/00 A2991 RMK A01 T01280000  RH  042%=      5-min Rain = 0
KCO1 090637Z 12006KT 13/00 A2991 RMK A01 T012700-0  RH  042%=      5-min Rain = 0
KCO1 090638Z 12006KT 13/00 A2991 RMK A01 T012600-0  RH  042%=      5-min Rain = 0
KCO1 090639Z 12006KT 13/00 A2991 RMK A01 T012600-0  RH  042%=      5-min Rain = 0
KCO1 090640Z 11006KT 13/00 A2991 RMK A01 T012500-0  RH  042%=      5-min Rain = 0
KCO1 090641Z 11006KT 13/00 A2991 RMK A01 T01250000  RH  042%=      5-min Rain = 0
KCO1 090642Z 12007KT 13/00 A2991 RMK A01 T01250000  RH  042%=      5-min Rain = 0
KCO1 090643Z 12006KT 13/00 A2991 RMK A01 T01250000  RH  042%=      5-min Rain = 0
KCO1 090644Z 12007KT 13/00 A2991 RMK A01 T01250000  RH  042%=      5-min Rain = 0
KCO1 090645Z 12008KT 13/00 A2991 RMK A01 T01250000  RH  042%=      5-min Rain = 0
KCO1 090646Z 13008KT 12/00 A2991 RMK A01 T012400-0  RH  042%=      5-min Rain = 0
KCO1 090647Z 13009KT 12/00 A2991 RMK A01 T012300-0  RH  043%=      5-min Rain = 0
KCO1 090648Z 13009KT 12/M00 A2991 RMK A01 T01231001  RH  043%=      5-min Rain = 0
KCO1 090649Z 12008KT 12/00 A2991 RMK A01 T012200-0  RH  043%=      5-min Rain = 0
KCO1 090650Z 12008KT 12/00 A2991 RMK A01 T012200-0  RH  043%=      5-min Rain = 0
KCO1 090651Z 12008KT 12/00 A2991 RMK A01 T012200-0  RH  043%=      5-min Rain = 0
KCO1 090652Z 13008KT 12/M00 A2991 RMK A01 T01221001  RH  043%=      5-min Rain = 0
KCO1 090653Z 12008KT 12/00 A2991 RMK A01 T012100-0  RH  043%=      5-min Rain = 0
KCO1 090654Z 12008KT 12/M00 A2991 RMK A01 T01211001  RH  043%=      5-min Rain = 0
KCO1 090655Z 13007KT 12/00 A2991 RMK A01 T012100-0  RH  043%=      5-min Rain = 0
KCO1 090656Z 13007KT 12/M00 A2991 RMK A01 T01201001  RH  043%=      5-min Rain = 0
KCO1 090657Z 12006KT 12/M00 A2991 RMK A01 T01201001  RH  043%=      5-min Rain = 0
KCO1 090658Z 12006KT 12/00 A2991 RMK A01 T012000-0  RH  044%=      5-min Rain = 0
KCO1 090659Z 12006KT 12/00 A2991 RMK A01 T012000-0  RH  044%=      5-min Rain = 0
KCO1 090700Z 12005KT 12/00 A2991 RMK A01 T012000-0  RH  044%=      5-min Rain = 0
KCO1 090701Z 12005KT 12/00 A299 RMK A01 T012000-0  RH  044%=      5-min Rain = 0
KCO1 090702Z 12005KT 12/00 A299 RMK A01 T011900-0  RH  044%=      5-min Rain = 0
KCO1 090703Z 12005KT 12/00 A299 RMK A01 T011900-0  RH  044%=      5-min Rain = 0
KCO1 090704Z 12005KT 12/00 A299 RMK A01 T011900-0  RH  044%=      5-min Rain = 0
KCO1 090705Z 12005KT 12/M00 A299 RMK A01 T01181001  RH  044%=      5-min Rain = 0
KCO1 090706Z 12006KT 12/M00 A299 RMK A01 T01181001  RH  044%=      5-min Rain = 0
KCO1 090707Z 13007KT 12/M00 A299 RMK A01 T01171002  RH  044%=      5-min Rain = 0
KCO1 090708Z 13006KT 12/M00 A299 RMK A01 T01161002  RH  044%=      5-min Rain = 0
KCO1 090709Z 13006KT 12/M00 A299 RMK A01 T01161001  RH  044%=      5-min Rain = 0
KCO1 090710Z 14004KT 12/M00 A299 RMK A01 T01171001  RH  044%=      5-min Rain = 0
KCO1 090711Z 13004KT 12/M00 A299 RMK A01 T01171001  RH  044%=      5-min Rain = 0
KCO1 090712Z 13004KT 12/M00 A299 RMK A01 T01171001  RH  044%=      5-min Rain = 0
KCO1 090713Z 14004KT 12/M00 A299 RMK A01 T01161001  RH  044%=      5-min Rain = 0
KCO1 090714Z 15004KT 12/M00 A299 RMK A01 T01151002  RH  044%=      5-min Rain = 0
KCO1 090715Z 17004KT 12/M00 A299 RMK A01 T01151002  RH  044%=      5-min Rain = 0
KCO1 090716Z 17004KT 11/M00 A299 RMK A01 T01141002  RH  045%=      5-min Rain = 0
KCO1 090717Z 16004KT 11/M00 A299 RMK A01 T01141002  RH  045%=      5-min Rain = 0
KCO1 090718Z 14005KT 11/M00 A299 RMK A01 T01131002  RH  045%=      5-min Rain = 0
KCO1 090719Z 14006KT 11/M00 A299 RMK A01 T01131003  RH  045%=      5-min Rain = 0
KCO1 090720Z 14006KT 11/M00 A299 RMK A01 T01121003  RH  045%=      5-min Rain = 0
KCO1 090721Z 14007KT 11/M00 A299 RMK A01 T01111003  RH  045%=      5-min Rain = 0
KCO1 090722Z 13008KT 11/M00 A299 RMK A01 T01111002  RH  046%=      5-min Rain = 0
KCO1 090723Z 13008KT 11/M00 A299 RMK A01 T01121002  RH  045%=      5-min Rain = 0
KCO1 090724Z 13008KT 11/M00 A299 RMK A01 T01131001  RH  045%=      5-min Rain = 0
KCO1 090725Z 13008KT 11/M00 A299 RMK A01 T01131002  RH  045%=      5-min Rain = 0
KCO1 090726Z 13008KT 11/M00 A299 RMK A01 T01141001  RH  045%=      5-min Rain = 0
KCO1 090727Z 13006KT 11/M00 A299 RMK A01 T01141001  RH  045%=      5-min Rain = 0
KCO1 090728Z 13005KT 12/M00 A299 RMK A01 T01151001  RH  045%=      5-min Rain = 0
KCO1 090729Z 13006KT 12/M00 A299 RMK A01 T01151002  RH  045%=      5-min Rain = 0
KCO1 090730Z 13007KT 11/M00 A2989 RMK A01 T01141003  RH  045%=      5-min Rain = 0
KCO1 090731Z 13007KT 11/M00 A2989 RMK A01 T01131002  RH  045%=      5-min Rain = 0
KCO1 090732Z 13008KT 11/M00 A2989 RMK A01 T01131002  RH  045%=      5-min Rain = 0
KCO1 090733Z 13008KT 11/M00 A2989 RMK A01 T01131002  RH  045%=      5-min Rain = 0
KCO1 090734Z 13008KT 11/M00 A2989 RMK A01 T01131002  RH  045%=      5-min Rain = 0
KCO1 090735Z 13008KT 11/M00 A2989 RMK A01 T01131002  RH  045%=      5-min Rain = 0
KCO1 090736Z 13008KT 11/M00 A2989 RMK A01 T01131002  RH  045%=      5-min Rain = 0
KCO1 090737Z 13008KT 11/M00 A2989 RMK A01 T01121002  RH  045%=      5-min Rain = 0
KCO1 090738Z 13008KT 11/M00 A2989 RMK A01 T01121003  RH  045%=      5-min Rain = 0
KCO1 090739Z 13008KT 11/M00 A2989 RMK A01 T01111003  RH  045%=      5-min Rain = 0
KCO1 090740Z 13009KT 11/M00 A2989 RMK A01 T01101003  RH  046%=      5-min Rain = 0
KCO1 090741Z 13009KT 11/M00 A2989 RMK A01 T01101003  RH  046%=      5-min Rain = 0
KCO1 090742Z 13009KT 11/M00 A2989 RMK A01 T01101002  RH  046%=      5-min Rain = 0
KCO1 090743Z 13009KT 11/M00 A2989 RMK A01 T01101002  RH  046%=      5-min Rain = 0
KCO1 090744Z 13009KT 11/M00 A2989 RMK A01 T01091003  RH  046%=      5-min Rain = 0
KCO1 090745Z 13008KT 11/M00 A2989 RMK A01 T01091002  RH  046%=      5-min Rain = 0
KCO1 090746Z 13008KT 11/M00 A2989 RMK A01 T01091002  RH  046%=      5-min Rain = 0
KCO1 090747Z 13008KT 11/M00 A2989 RMK A01 T01091002  RH  046%=      5-min Rain = 0
KCO1 090748Z 13009KT 11/M00 A2989 RMK A01 T01091002  RH  046%=      5-min Rain = 0
KCO1 090749Z 13009KT 11/M00 A2989 RMK A01 T01101002  RH  046%=      5-min Rain = 0
KCO1 090750Z 13009KT 11/M00 A2989 RMK A01 T01101002  RH  046%=      5-min Rain = 0
KCO1 090751Z 13008KT 11/M00 A2989 RMK A01 T01101002  RH  046%=      5-min Rain = 0
KCO1 090752Z 13009KT 11/M00 A2989 RMK A01 T01101002  RH  046%=      5-min Rain = 0
KCO1 090753Z 12009KT 11/M00 A2989 RMK A01 T01101002  RH  046%=      5-min Rain = 0
KCO1 090754Z 12009KT 11/M00 A2989 RMK A01 T01101002  RH  046%=      5-min Rain = 0
KCO1 090755Z 12009KT 11/M00 A2989 RMK A01 T01101002  RH  046%=      5-min Rain = 0
KCO1 090756Z 12008KT 11/M00 A2989 RMK A01 T01101002  RH  046%=      5-min Rain = 0
KCO1 090757Z 12008KT 11/M00 A2989 RMK A01 T01101002  RH  046%=      5-min Rain = 0
KCO1 090758Z 12008KT 11/M00 A2989 RMK A01 T01091003  RH  046%=      5-min Rain = 0
KCO1 090759Z 12008KT 11/M00 A2989 RMK A01 T01081003  RH  046%=      5-min Rain = 0
KCO1 090800Z 12008KT 11/M00 A2989 RMK A01 T01081003  RH  046%=      5-min Rain = 0
KCO1 090801Z 12008KT 11/M00 A2989 RMK A01 T01071003  RH  046%=      5-min Rain = 0
KCO1 090802Z 13008KT 11/M00 A2989 RMK A01 T01071003  RH  047%=      5-min Rain = 0
KCO1 090803Z 13008KT 11/M00 A2989 RMK A01 T01071003  RH  047%=      5-min Rain = 0
KCO1 090804Z 13007KT 11/M00 A2989 RMK A01 T01071002  RH  047%=      5-min Rain = 0
KCO1 090805Z 13008KT 11/M00 A2989 RMK A01 T01061003  RH  047%=      5-min Rain = 0
KCO1 090806Z 14008KT 11/M00 A2989 RMK A01 T01061003  RH  047%=      5-min Rain = 0
KCO1 090807Z 13009KT 11/M00 A2989 RMK A01 T01061003  RH  047%=      5-min Rain = 0
KCO1 090808Z 14008KT 11/M00 A2989 RMK A01 T01071002  RH  047%=      5-min Rain = 0
KCO1 090809Z 14008KT 11/M00 A2989 RMK A01 T01071002  RH  047%=      5-min Rain = 0
KCO1 090810Z 14008KT 11/M00 A2989 RMK A01 T01081002  RH  047%=      5-min Rain = 0
KCO1 090811Z 14007KT 11/M00 A2989 RMK A01 T01081002  RH  046%=      5-min Rain = 0
KCO1 090812Z 14007KT 11/M00 A2989 RMK A01 T01081003  RH  046%=      5-min Rain = 0
KCO1 090813Z 15007KT 11/M00 A2989 RMK A01 T01071004  RH  046%=      5-min Rain = 0
KCO1 090814Z 15008KT 11/M00 A2989 RMK A01 T01051004  RH  047%=      5-min Rain = 0
KCO1 090815Z 15008KT 11/M00 A2989 RMK A01 T01051003  RH  047%=      5-min Rain = 0
KCO1 090816Z 15008KT 11/M00 A2989 RMK A01 T01051003  RH  047%=      5-min Rain = 0
KCO1 090817Z 14007KT 11/M00 A2989 RMK A01 T01051002  RH  047%=      5-min Rain = 0
KCO1 090818Z 14008KT 11/M00 A2989 RMK A01 T01051002  RH  047%=      5-min Rain = 0
KCO1 090819Z 14007KT 11/M00 A2989 RMK A01 T01051002  RH  047%=      5-min Rain = 0
KCO1 090820Z 14008KT 11/M00 A2989 RMK A01 T01051002  RH  047%=      5-min Rain = 0
KCO1 090821Z 14007KT 11/M00 A2989 RMK A01 T01061002  RH  047%=      5-min Rain = 0
KCO1 090822Z 13007KT 11/M00 A2989 RMK A01 T01061002  RH  047%=      5-min Rain = 0
KCO1 090823Z 13006KT 11/M00 A2989 RMK A01 T01061002  RH  047%=      5-min Rain = 0
KCO1 090824Z 13006KT 11/M00 A2989 RMK A01 T01051003  RH  047%=      5-min Rain = 0
KCO1 090825Z 12006KT 10/M00 A2989 RMK A01 T01041003  RH  047%=      5-min Rain = 0
KCO1 090826Z 11005KT 10/M00 A2989 RMK A01 T01031004  RH  047%=      5-min Rain = 0
KCO1 090827Z 10006KT 10/M01 A2989 RMK A01 T01021005  RH  048%=      5-min Rain = 0
KCO1 090828Z 10005KT 10/M01 A2989 RMK A01 T01001005  RH  048%=      5-min Rain = 0
KCO1 090829Z 10005KT 10/M01 A2989 RMK A01 T00991005  RH  048%=      5-min Rain = 0
KCO1 090830Z 10006KT 10/M01 A2989 RMK A01 T00981006  RH  048%=      5-min Rain = 0
KCO1 090831Z 10006KT 10/M01 A2989 RMK A01 T00971006  RH  049%=      5-min Rain = 0
KCO1 090832Z 11005KT 10/M01 A2989 RMK A01 T00961006  RH  049%=      5-min Rain = 0
KCO1 090833Z 12006KT 10/M01 A2989 RMK A01 T00961006  RH  049%=      5-min Rain = 0
KCO1 090834Z 12006KT 10/M01 A2989 RMK A01 T00951006  RH  049%=      5-min Rain = 0
KCO1 090835Z 13006KT 09/M01 A2989 RMK A01 T00941007  RH  049%=      5-min Rain = 0
KCO1 090836Z 13006KT 09/M01 A2989 RMK A01 T00931007  RH  050%=      5-min Rain = 0
KCO1 090837Z 14005KT 09/M01 A2989 RMK A01 T00931007  RH  050%=      5-min Rain = 0
KCO1 090838Z 14006KT 09/M01 A2989 RMK A01 T00931007  RH  050%=      5-min Rain = 0
KCO1 090839Z 14007KT 09/M01 A2989 RMK A01 T00911007  RH  050%=      5-min Rain = 0
KCO1 090840Z 14007KT 09/M01 A2988 RMK A01 T00911007  RH  050%=      5-min Rain = 0
KCO1 090841Z 14007KT 09/M01 A2988 RMK A01 T00911006  RH  051%=      5-min Rain = 0
KCO1 090842Z 14007KT 09/M01 A2988 RMK A01 T00911006  RH  051%=      5-min Rain = 0
KCO1 090843Z 14006KT 09/M01 A2988 RMK A01 T00911006  RH  051%=      5-min Rain = 0
KCO1 090844Z 15005KT 09/M01 A2988 RMK A01 T00911007  RH  050%=      5-min Rain = 0
KCO1 090845Z 15005KT 09/M01 A2988 RMK A01 T00911007  RH  051%=      5-min Rain = 0
KCO1 090846Z 15003KT 09/M01 A2988 RMK A01 T00901007  RH  051%=      5-min Rain = 0
KCO1 090847Z 15002KT 09/M01 A2988 RMK A01 T00901007  RH  051%=      5-min Rain = 0
KCO1 090848Z 12002KT 09/M01 A2988 RMK A01 T00891008  RH  051%=      5-min Rain = 0
KCO1 090849Z 09002KT 09/M01 A2989 RMK A01 T00891008  RH  051%=      5-min Rain = 0
KCO1 090850Z 08002KT 09/M01 A2989 RMK A01 T00891007  RH  051%=      5-min Rain = 0
KCO1 090851Z 09002KT 09/M01 A2989 RMK A01 T00891007  RH  051%=      5-min Rain = 0
KCO1 090852Z 09003KT 09/M01 A2989 RMK A01 T00901005  RH  051%=      5-min Rain = 0
KCO1 090853Z 10004KT 09/M01 A2989 RMK A01 T00911005  RH  051%=      5-min Rain = 0
KCO1 090854Z 10004KT 09/M01 A2989 RMK A01 T00911005  RH  051%=      5-min Rain = 0
KCO1 090855Z 10005KT 09/M01 A2989 RMK A01 T00911005  RH  051%=      5-min Rain = 0
KCO1 090856Z 09004KT 09/M01 A2989 RMK A01 T00911006  RH  051%=      5-min Rain = 0
KCO1 090857Z 08004KT 09/M01 A2989 RMK A01 T00911006  RH  051%=      5-min Rain = 0
KCO1 090858Z 08004KT 09/M01 A2989 RMK A01 T00901007  RH  051%=      5-min Rain = 0
KCO1 090859Z 08004KT 09/M01 A2989 RMK A01 T00891007  RH  051%=      5-min Rain = 0
KCO1 090900Z 09004KT 09/M01 A2989 RMK A01 T00891006  RH  051%=      5-min Rain = 0
KCO1 090901Z 10004KT 09/M01 A2989 RMK A01 T00881006  RH  052%=      5-min Rain = 0
KCO1 090902Z 11004KT 09/M01 A2988 RMK A01 T00881006  RH  052%=      5-min Rain = 0
KCO1 090903Z 12004KT 09/M01 A2988 RMK A01 T00881006  RH  052%=      5-min Rain = 0
KCO1 090904Z 12004KT 09/M01 A2988 RMK A01 T00881006  RH  052%=      5-min Rain = 0
KCO1 090905Z 12004KT 09/M01 A2988 RMK A01 T00871007  RH  052%=      5-min Rain = 0
KCO1 090906Z 12004KT 09/M01 A2988 RMK A01 T00851008  RH  052%=      5-min Rain = 0
KCO1 090907Z 12004KT 08/M01 A2988 RMK A01 T00841009  RH  052%=      5-min Rain = 0
KCO1 090908Z 10003KT 08/M01 A2988 RMK A01 T00831008  RH  052%=      5-min Rain = 0
KCO1 090909Z 10004KT 08/M01 A2988 RMK A01 T00821008  RH  053%=      5-min Rain = 0
KCO1 090910Z 10005KT 08/M01 A2988 RMK A01 T00821007  RH  053%=      5-min Rain = 0
KCO1 090911Z 10005KT 08/M01 A2988 RMK A01 T00821008  RH  053%=      5-min Rain = 0
KCO1 090912Z 10005KT 08/M01 A2988 RMK A01 T00811008  RH  053%=      5-min Rain = 0
KCO1 090913Z 11005KT 08/M01 A2988 RMK A01 T00811008  RH  053%=      5-min Rain = 0
KCO1 090914Z 11005KT 08/M01 A2988 RMK A01 T00811008  RH  054%=      5-min Rain = 0
KCO1 090915Z 12005KT 08/M01 A2988 RMK A01 T00811008  RH  054%=      5-min Rain = 0
KCO1 090916Z 12005KT 08/M01 A2988 RMK A01 T00811008  RH  053%=      5-min Rain = 0
KCO1 090917Z 13006KT 08/M01 A2988 RMK A01 T00811008  RH  053%=      5-min Rain = 0
KCO1 090918Z 13005KT 08/M01 A2988 RMK A01 T00801009  RH  053%=      5-min Rain = 0
KCO1 090919Z 13006KT 08/M01 A2988 RMK A01 T00791010  RH  053%=      5-min Rain = 0
KCO1 090920Z 13006KT 08/M01 A2988 RMK A01 T00771012  RH  054%=      5-min Rain = 0
KCO1 090921Z 12006KT 08/M01 A2988 RMK A01 T00761012  RH  054%=      5-min Rain = 0
KCO1 090922Z 12006KT 08/M01 A2988 RMK A01 T00751011  RH  054%=      5-min Rain = 0
KCO1 090923Z 12006KT 08/M01 A2988 RMK A01 T00751010  RH  055%=      5-min Rain = 0
KCO1 090924Z 12006KT 08/M01 A2987 RMK A01 T00751010  RH  055%=      5-min Rain = 0
KCO1 090925Z 12006KT 08/M01 A2987 RMK A01 T00751010  RH  055%=      5-min Rain = 0
KCO1 090926Z 12007KT 08/M01 A2987 RMK A01 T00751010  RH  055%=      5-min Rain = 0
KCO1 090927Z 12007KT 08/M01 A2987 RMK A01 T00761009  RH  055%=      5-min Rain = 0
KCO1 090928Z 12007KT 08/M01 A2987 RMK A01 T00761009  RH  055%=      5-min Rain = 0
KCO1 090929Z 12008KT 08/M01 A2987 RMK A01 T00761010  RH  055%=      5-min Rain = 0
KCO1 090930Z 12008KT 08/M01 A2987 RMK A01 T00761010  RH  055%=      5-min Rain = 0
KCO1 090931Z 13007KT 08/M01 A2987 RMK A01 T00761010  RH  055%=      5-min Rain = 0
KCO1 090932Z 12007KT 08/M01 A2987 RMK A01 T00761009  RH  055%=      5-min Rain = 0
KCO1 090933Z 13007KT 08/M01 A2987 RMK A01 T00761009  RH  055%=      5-min Rain = 0
KCO1 090934Z 13007KT 08/M01 A2987 RMK A01 T00761010  RH  055%=      5-min Rain = 0
KCO1 090935Z 13007KT 08/M01 A2987 RMK A01 T00751010  RH  055%=      5-min Rain = 0
KCO1 090936Z 13008KT 08/M01 A2987 RMK A01 T00751011  RH  055%=      5-min Rain = 0
KCO1 090937Z 13008KT 08/M01 A2987 RMK A01 T00751011  RH  055%=      5-min Rain = 0
KCO1 090938Z 13008KT 07/M01 A2986 RMK A01 T00741011  RH  055%=      5-min Rain = 0
KCO1 090939Z 13008KT 07/M01 A2986 RMK A01 T00741011  RH  055%=      5-min Rain = 0
KCO1 090940Z 13008KT 07/M01 A2986 RMK A01 T00741011  RH  055%=      5-min Rain = 0
KCO1 090941Z 13008KT 07/M01 A2986 RMK A01 T00741011  RH  055%=      5-min Rain = 0
KCO1 090942Z 13008KT 07/M01 A2986 RMK A01 T00741010  RH  055%=      5-min Rain = 0
KCO1 090943Z 13007KT 08/M01 A2986 RMK A01 T00751010  RH  055%=      5-min Rain = 0
KCO1 090944Z 13007KT 08/M01 A2986 RMK A01 T00751010  RH  055%=      5-min Rain = 0
KCO1 090945Z 13007KT 08/M01 A2986 RMK A01 T00761010  RH  055%=      5-min Rain = 0
KCO1 090946Z 13007KT 08/M01 A2986 RMK A01 T00761010  RH  055%=      5-min Rain = 0
KCO1 090947Z 13006KT 08/M01 A2986 RMK A01 T00761010  RH  055%=      5-min Rain = 0
KCO1 090948Z 13007KT 08/M01 A2986 RMK A01 T00761010  RH  055%=      5-min Rain = 0
KCO1 090949Z 13007KT 08/M01 A2986 RMK A01 T00751010  RH  055%=      5-min Rain = 0
KCO1 090950Z 13007KT 08/M01 A2986 RMK A01 T00761010  RH  055%=      5-min Rain = 0
KCO1 090951Z 14006KT 08/M01 A2986 RMK A01 T00751010  RH  055%=      5-min Rain = 0
KCO1 090952Z 14006KT 08/M01 A2986 RMK A01 T00751010  RH  055%=      5-min Rain = 0
KCO1 090953Z 14006KT 08/M01 A2986 RMK A01 T00751010  RH  055%=      5-min Rain = 0
KCO1 090954Z 14006KT 08/M01 A2986 RMK A01 T00751010  RH  055%=      5-min Rain = 0
KCO1 090955Z 14007KT 07/M01 A2986 RMK A01 T00741010  RH  055%=      5-min Rain = 0
KCO1 090956Z 14007KT 07/M01 A2986 RMK A01 T00741010  RH  055%=      5-min Rain = 0
KCO1 090957Z 14007KT 07/M01 A2986 RMK A01 T00741010  RH  055%=      5-min Rain = 0
KCO1 090958Z 14007KT 07/M01 A2986 RMK A01 T00741010  RH  055%=      5-min Rain = 0
KCO1 090959Z 14008KT 07/M01 A2986 RMK A01 T00741010  RH  055%=      5-min Rain = 0
KCO1 091000Z 14008KT 07/M01 A2986 RMK A01 T00741010  RH  055%=      5-min Rain = 0
KCO1 091001Z 14008KT 07/M01 A2986 RMK A01 T00741010  RH  055%=      5-min Rain = 0
KCO1 091002Z 14008KT 08/M01 A2986 RMK A01 T00751010  RH  055%=      5-min Rain = 0
KCO1 091003Z 14008KT 08/M01 A2986 RMK A01 T00751010  RH  055%=      5-min Rain = 0
KCO1 091004Z 14008KT 08/M01 A2986 RMK A01 T00751010  RH  055%=      5-min Rain = 0
KCO1 091005Z 14007KT 08/M01 A2986 RMK A01 T00751010  RH  055%=      5-min Rain = 0
KCO1 091006Z 14007KT 08/M01 A2986 RMK A01 T00751009  RH  055%=      5-min Rain = 0
KCO1 091007Z 14007KT 08/M01 A2986 RMK A01 T00761009  RH  055%=      5-min Rain = 0
KCO1 091008Z 14007KT 08/M01 A2986 RMK A01 T00761009  RH  055%=      5-min Rain = 0
KCO1 091009Z 13007KT 08/M01 A2986 RMK A01 T00761009  RH  055%=      5-min Rain = 0
KCO1 091010Z 13007KT 08/M01 A2986 RMK A01 T00761010  RH  055%=      5-min Rain = 0
KCO1 091011Z 13007KT 08/M01 A2986 RMK A01 T00751010  RH  055%=      5-min Rain = 0
KCO1 091012Z 13008KT 08/M01 A2986 RMK A01 T00751010  RH  055%=      5-min Rain = 0
KCO1 091013Z 13008KT 08/M01 A2986 RMK A01 T00751010  RH  055%=      5-min Rain = 0
KCO1 091014Z 13008KT 07/M01 A2986 RMK A01 T00741010  RH  055%=      5-min Rain = 0
KCO1 091015Z 13009KT 07/M01 A2986 RMK A01 T00741010  RH  055%=      5-min Rain = 0
KCO1 091016Z 14009KT 07/M01 A2986 RMK A01 T00741010  RH  055%=      5-min Rain = 0
KCO1 091017Z 14008KT 07/M01 A2986 RMK A01 T00741010  RH  055%=      5-min Rain = 0
KCO1 091018Z 14008KT 08/M01 A2986 RMK A01 T00751009  RH  055%=      5-min Rain = 0
KCO1 091019Z 14008KT 08/M01 A2986 RMK A01 T00751009  RH  055%=      5-min Rain = 0
KCO1 091020Z 14008KT 08/M01 A2986 RMK A01 T00751009  RH  055%=      5-min Rain = 0
KCO1 091021Z 14008KT 08/M01 A2986 RMK A01 T00761008  RH  055%=      5-min Rain = 0
KCO1 091022Z 14007KT 08/M01 A2986 RMK A01 T00771008  RH  055%=      5-min Rain = 0
KCO1 091023Z 14007KT 08/M01 A2986 RMK A01 T00771009  RH  055%=      5-min Rain = 0
KCO1 091024Z 13007KT 08/M01 A2986 RMK A01 T00771009  RH  055%=      5-min Rain = 0
KCO1 091025Z 13007KT 08/M01 A2986 RMK A01 T00771009  RH  055%=      5-min Rain = 0
KCO1 091026Z 13006KT 08/M01 A2986 RMK A01 T00771009  RH  055%=      5-min Rain = 0
KCO1 091027Z 12006KT 08/M01 A2986 RMK A01 T00761009  RH  055%=      5-min Rain = 0
KCO1 091028Z 12007KT 08/M01 A2986 RMK A01 T00761010  RH  055%=      5-min Rain = 0
KCO1 091029Z 12007KT 08/M01 A2986 RMK A01 T00751010  RH  055%=      5-min Rain = 0
KCO1 091030Z 12007KT 07/M01 A2986 RMK A01 T00741011  RH  055%=      5-min Rain = 0
KCO1 091031Z 12007KT 07/M01 A2986 RMK A01 T00741011  RH  055%=      5-min Rain = 0
KCO1 091032Z 12008KT 07/M01 A2986 RMK A01 T00731011  RH  055%=      5-min Rain = 0
KCO1 091033Z 12008KT 07/M01 A2986 RMK A01 T00731011  RH  055%=      5-min Rain = 0
KCO1 091034Z 13007KT 07/M01 A2986 RMK A01 T00731011  RH  055%=      5-min Rain = 0
KCO1 091035Z 13007KT 07/M01 A2985 RMK A01 T00731011  RH  055%=      5-min Rain = 0
KCO1 091036Z 13007KT 07/M01 A2985 RMK A01 T00731011  RH  055%=      5-min Rain = 0
KCO1 091037Z 13008KT 07/M01 A2985 RMK A01 T00721011  RH  055%=      5-min Rain = 0
KCO1 091038Z 13008KT 07/M01 A2985 RMK A01 T00721011  RH  056%=      5-min Rain = 0
KCO1 091039Z 13007KT 07/M01 A2985 RMK A01 T00721011  RH  056%=      5-min Rain = 0
KCO1 091040Z 13007KT 07/M01 A2985 RMK A01 T00721011  RH  056%=      5-min Rain = 0
KCO1 091041Z 14007KT 07/M01 A2985 RMK A01 T00721011  RH  056%=      5-min Rain = 0
KCO1 091042Z 13007KT 07/M01 A2985 RMK A01 T00721011  RH  056%=      5-min Rain = 0
KCO1 091043Z 13006KT 07/M01 A2985 RMK A01 T00721010  RH  056%=      5-min Rain = 0
KCO1 091044Z 13006KT 07/M01 A2985 RMK A01 T00721010  RH  056%=      5-min Rain = 0
KCO1 091045Z 13006KT 07/M01 A2985 RMK A01 T00731010  RH  056%=      5-min Rain = 0
KCO1 091046Z 13006KT 07/M01 A2985 RMK A01 T00731010  RH  056%=      5-min Rain = 0
KCO1 091047Z 13006KT 07/M01 A2985 RMK A01 T00731010  RH  055%=      5-min Rain = 0
KCO1 091048Z 13006KT 07/M01 A2985 RMK A01 T00731011  RH  055%=      5-min Rain = 0
KCO1 091049Z 13006KT 07/M01 A2985 RMK A01 T00721011  RH  055%=      5-min Rain = 0
KCO1 091050Z 13006KT 07/M01 A2985 RMK A01 T00721012  RH  055%=      5-min Rain = 0
KCO1 091051Z 13006KT 07/M01 A2986 RMK A01 T00711011  RH  056%=      5-min Rain = 0
KCO1 091052Z 14006KT 07/M01 A2986 RMK A01 T00711012  RH  056%=      5-min Rain = 0
KCO1 091053Z 14006KT 07/M01 A2986 RMK A01 T00701012  RH  056%=      5-min Rain = 0
KCO1 091054Z 14006KT 07/M01 A2986 RMK A01 T00701012  RH  056%=      5-min Rain = 0
KCO1 091055Z 14006KT 07/M01 A2986 RMK A01 T00691013  RH  056%=      5-min Rain = 0
KCO1 091056Z 14006KT 07/M01 A2986 RMK A01 T00691013  RH  056%=      5-min Rain = 0
KCO1 091057Z 14006KT 07/M01 A2986 RMK A01 T00681013  RH  056%=      5-min Rain = 0
KCO1 091058Z 14006KT 07/M01 A2986 RMK A01 T00681013  RH  056%=      5-min Rain = 0
KCO1 091059Z 14006KT 07/M01 A2986 RMK A01 T00681013  RH  056%=      5-min Rain = 0
KCO1 091100Z 14005KT 07/M01 A2986 RMK A01 T00681013  RH  056%=      5-min Rain = 0
KCO1 091101Z 14005KT 07/M01 A2986 RMK A01 T00681013  RH  056%=      5-min Rain = 0
KCO1 091102Z 14005KT 07/M01 A2986 RMK A01 T00671014  RH  056%=      5-min Rain = 0
KCO1 091103Z 14005KT 07/M01 A2986 RMK A01 T00671014  RH  056%=      5-min Rain = 0
KCO1 091104Z 14005KT 07/M01 A2986 RMK A01 T00661014  RH  057%=      5-min Rain = 0
KCO1 091105Z 14005KT 07/M01 A2986 RMK A01 T00661014  RH  057%=      5-min Rain = 0
KCO1 091106Z 13005KT 07/M01 A2986 RMK A01 T00651014  RH  057%=      5-min Rain = 0
KCO1 091107Z 14005KT 07/M02 A2986 RMK A01 T00651015  RH  057%=      5-min Rain = 0
KCO1 091108Z 14005KT 06/M02 A2986 RMK A01 T00641015  RH  057%=      5-min Rain = 0
KCO1 091109Z 14005KT 06/M02 A2986 RMK A01 T00641015  RH  057%=      5-min Rain = 0
KCO1 091110Z 14005KT 06/M02 A2986 RMK A01 T00631015  RH  057%=      5-min Rain = 0
KCO1 091111Z 14004KT 06/M02 A2986 RMK A01 T00631015  RH  057%=      5-min Rain = 0
KCO1 091112Z 14005KT 06/M02 A2986 RMK A01 T00621015  RH  058%=      5-min Rain = 0
KCO1 091113Z 14004KT 06/M02 A2986 RMK A01 T00621015  RH  058%=      5-min Rain = 0
KCO1 091114Z 14004KT 06/M01 A2986 RMK A01 T00621014  RH  058%=      5-min Rain = 0
KCO1 091115Z 14004KT 06/M01 A2986 RMK A01 T00621014  RH  058%=      5-min Rain = 0
KCO1 091116Z 14004KT 06/M01 A2986 RMK A01 T00621014  RH  058%=      5-min Rain = 0
KCO1 091117Z 13003KT 06/M01 A2986 RMK A01 T00621014  RH  058%=      5-min Rain = 0
KCO1 091118Z 10002KT 06/M01 A2986 RMK A01 T00611014  RH  058%=      5-min Rain = 0
KCO1 091119Z 07002KT 06/M02 A2986 RMK A01 T00611015  RH  058%=      5-min Rain = 0
KCO1 091120Z 06002KT 06/M02 A2986 RMK A01 T00611016  RH  058%=      5-min Rain = 0
KCO1 091121Z 09002KT 06/M02 A2986 RMK A01 T00601017  RH  058%=      5-min Rain = 0
KCO1 091122Z 12002KT 06/M02 A2986 RMK A01 T00591017  RH  058%=      5-min Rain = 0
KCO1 091123Z 14003KT 06/M02 A2986 RMK A01 T00591016  RH  058%=      5-min Rain = 0
KCO1 091124Z 15003KT 06/M02 A2986 RMK A01 T00591016  RH  059%=      5-min Rain = 0
KCO1 091125Z 16003KT 06/M02 A2986 RMK A01 T00601016  RH  058%=      5-min Rain = 0
KCO1 091126Z 16003KT 06/M02 A2986 RMK A01 T00601016  RH  058%=      5-min Rain = 0
KCO1 091127Z 17003KT 06/M02 A2986 RMK A01 T00601016  RH  058%=      5-min Rain = 0
KCO1 091128Z 17003KT 06/M02 A2986 RMK A01 T00611016  RH  058%=      5-min Rain = 0
KCO1 091129Z 18002KT 06/M02 A2986 RMK A01 T00611016  RH  058%=      5-min Rain = 0
KCO1 091130Z 18002KT 06/M02 A2986 RMK A01 T00611016  RH  058%=      5-min Rain = 0
KCO1 091131Z 17002KT 06/M02 A2986 RMK A01 T00601016  RH  058%=      5-min Rain = 0
KCO1 091132Z 16001KT 06/M02 A2986 RMK A01 T00601016  RH  058%=      5-min Rain = 0
KCO1 091133Z 16001KT 06/M02 A2986 RMK A01 T00601016  RH  058%=      5-min Rain = 0
KCO1 091134Z 16000KT 06/M02 A2986 RMK A01 T00601017  RH  058%=      5-min Rain = 0
KCO1 091135Z 00000KT 06/M02 A2986 RMK A01 T00591018  RH  058%=      5-min Rain = 0
KCO1 091136Z 00000KT 06/M02 A2986 RMK A01 T00571018  RH  058%=      5-min Rain = 0
KCO1 091137Z 13001KT 06/M02 A2986 RMK A01 T00571017  RH  059%=      5-min Rain = 0
KCO1 091138Z 15001KT 06/M02 A2986 RMK A01 T00571016  RH  059%=      5-min Rain = 0
KCO1 091139Z 17001KT 06/M02 A2986 RMK A01 T00581015  RH  059%=      5-min Rain = 0
KCO1 091140Z 17001KT 06/M02 A2986 RMK A01 T00581017  RH  058%=      5-min Rain = 0
KCO1 091141Z 17000KT 06/M02 A2986 RMK A01 T00561022  RH  057%=      5-min Rain = 0
KCO1 091142Z 10001KT 05/M02 A2986 RMK A01 T00541023  RH  057%=      5-min Rain = 0
KCO1 091143Z 08002KT 05/M02 A2986 RMK A01 T00521023  RH  059%=      5-min Rain = 0
KCO1 091144Z 09002KT 05/M02 A2986 RMK A01 T00511020  RH  060%=      5-min Rain = 0
KCO1 091145Z 10002KT 05/M02 A2986 RMK A01 T00521018  RH  061%=      5-min Rain = 0
KCO1 091146Z 11002KT 05/M02 A2986 RMK A01 T00531017  RH  061%=      5-min Rain = 0
KCO1 091147Z 11002KT 05/M02 A2986 RMK A01 T00541017  RH  060%=      5-min Rain = 0
KCO1 091148Z 12002KT 06/M02 A2986 RMK A01 T00551017  RH  060%=      5-min Rain = 0
KCO1 091149Z 13003KT 06/M02 A2986 RMK A01 T00551017  RH  060%=      5-min Rain = 0
KCO1 091150Z 13003KT 06/M02 A2986 RMK A01 T00551017  RH  060%=      5-min Rain = 0
KCO1 091151Z 13003KT 06/M02 A2986 RMK A01 T00551017  RH  060%=      5-min Rain = 0
KCO1 091152Z 13003KT 06/M02 A2986 RMK A01 T00561017  RH  059%=      5-min Rain = 0
KCO1 091153Z 13003KT 06/M02 A2986 RMK A01 T00561018  RH  059%=      5-min Rain = 0
KCO1 091154Z 12003KT 06/M02 A2986 RMK A01 T00551019  RH  059%=      5-min Rain = 0
KCO1 091155Z 11003KT 06/M02 A2986 RMK A01 T00551019  RH  059%=      5-min Rain = 0
KCO1 091156Z 11003KT 05/M02 A2986 RMK A01 T00541019  RH  060%=      5-min Rain = 0
KCO1 091157Z 11003KT 05/M02 A2986 RMK A01 T00541018  RH  060%=      5-min Rain = 0
KCO1 091158Z 11003KT 05/M02 A2986 RMK A01 T00541019  RH  059%=      5-min Rain = 0
KCO1 091159Z 12004KT 05/M02 A2986 RMK A01 T00541020  RH  059%=      5-min Rain = 0
KCO1 091200Z 12003KT 05/M02 A2986 RMK A01 T00531020  RH  059%=      5-min Rain = 0
KCO1 091201Z 12004KT 05/M02 A2986 RMK A01 T00521022  RH  059%=      5-min Rain = 0
KCO1 091202Z 12003KT 05/M02 A2986 RMK A01 T00511022  RH  059%=      5-min Rain = 0
KCO1 091203Z 12003KT 05/M02 A2986 RMK A01 T00511023  RH  059%=      5-min Rain = 0
KCO1 091204Z 12003KT 05/M02 A2986 RMK A01 T00491023  RH  059%=      5-min Rain = 0
KCO1 091205Z 12003KT 05/M02 A2986 RMK A01 T00491024  RH  059%=      5-min Rain = 0
KCO1 091206Z 12003KT 05/M03 A2986 RMK A01 T00471025  RH  060%=      5-min Rain = 0
KCO1 091207Z 12003KT 05/M03 A2986 RMK A01 T00461025  RH  060%=      5-min Rain = 0
KCO1 091208Z 12003KT 05/M03 A2986 RMK A01 T00451025  RH  061%=      5-min Rain = 0
KCO1 091209Z 12002KT 05/M02 A2986 RMK A01 T00451024  RH  061%=      5-min Rain = 0
KCO1 091210Z 12002KT 04/M02 A2986 RMK A01 T00441024  RH  061%=      5-min Rain = 0
KCO1 091211Z 12003KT 04/M02 A2986 RMK A01 T00441024  RH  061%=      5-min Rain = 0
KCO1 091212Z 12003KT 04/M02 A2986 RMK A01 T00441024  RH  061%=      5-min Rain = 0
KCO1 091213Z 12003KT 04/M02 A2986 RMK A01 T00441023  RH  061%=      5-min Rain = 0
KCO1 091214Z 12003KT 04/M02 A2986 RMK A01 T00441024  RH  061%=      5-min Rain = 0
KCO1 091215Z 12003KT 04/M02 A2986 RMK A01 T00441024  RH  061%=      5-min Rain = 0
KCO1 091216Z 12004KT 04/M02 A2986 RMK A01 T00441024  RH  061%=      5-min Rain = 0
KCO1 091217Z 12003KT 04/M03 A2986 RMK A01 T00441025  RH  061%=      5-min Rain = 0
KCO1 091218Z 12004KT 04/M03 A2986 RMK A01 T00441025  RH  061%=      5-min Rain = 0
KCO1 091219Z 12004KT 04/M03 A2986 RMK A01 T00441026  RH  061%=      5-min Rain = 0
KCO1 091220Z 12004KT 04/M03 A2986 RMK A01 T00441026  RH  061%=      5-min Rain = 0
KCO1 091221Z 11004KT 04/M03 A2986 RMK A01 T00441026  RH  060%=      5-min Rain = 0
KCO1 091222Z 11004KT 04/M03 A2986 RMK A01 T00431029  RH  060%=      5-min Rain = 0
KCO1 091223Z 11004KT 04/M03 A2986 RMK A01 T00411030  RH  060%=      5-min Rain = 0
KCO1 091224Z 12004KT 04/M03 A2986 RMK A01 T00411029  RH  060%=      5-min Rain = 0
KCO1 091225Z 12005KT 04/M03 A2986 RMK A01 T00401029  RH  061%=      5-min Rain = 0
KCO1 091226Z 11005KT 04/M03 A2987 RMK A01 T00391031  RH  060%=      5-min Rain = 0
KCO1 091227Z 11005KT 04/M03 A2987 RMK A01 T00391031  RH  060%=      5-min Rain = 0
KCO1 091228Z 11005KT 04/M03 A2987 RMK A01 T00381030  RH  061%=      5-min Rain = 0
KCO1 091229Z 11005KT 04/M03 A2987 RMK A01 T00381029  RH  061%=      5-min Rain = 0
KCO1 091230Z 11004KT 04/M03 A2987 RMK A01 T00391028  RH  062%=      5-min Rain = 0
KCO1 091231Z 11004KT 04/M03 A2987 RMK A01 T00391027  RH  062%=      5-min Rain = 0
KCO1 091232Z 12005KT 04/M03 A2987 RMK A01 T00391028  RH  062%=      5-min Rain = 0
KCO1 091233Z 12004KT 04/M03 A2987 RMK A01 T00391029  RH  061%=      5-min Rain = 0
KCO1 091234Z 11004KT 04/M03 A2987 RMK A01 T00391030  RH  061%=      5-min Rain = 0
KCO1 091235Z 11003KT 04/M03 A2987 RMK A01 T00381031  RH  061%=      5-min Rain = 0
KCO1 091236Z 11004KT 04/M03 A2987 RMK A01 T00381030  RH  061%=      5-min Rain = 0
KCO1 091237Z 10003KT 04/M03 A2987 RMK A01 T00381029  RH  062%=      5-min Rain = 0
KCO1 091238Z 10003KT 04/M03 A2987 RMK A01 T00371028  RH  062%=      5-min Rain = 0
KCO1 091239Z 10003KT 04/M03 A2987 RMK A01 T00381028  RH  062%=      5-min Rain = 0
KCO1 091240Z 10003KT 04/M03 A2987 RMK A01 T00381027  RH  062%=      5-min Rain = 0
KCO1 091241Z 10003KT 04/M03 A2987 RMK A01 T00381027  RH  062%=      5-min Rain = 0
KCO1 091242Z 10003KT 04/M03 A2987 RMK A01 T00391028  RH  062%=      5-min Rain = 0
KCO1 091243Z 10003KT 04/M03 A2986 RMK A01 T00391028  RH  062%=      5-min Rain = 0
KCO1 091244Z 11003KT 04/M03 A2986 RMK A01 T00391028  RH  062%=      5-min Rain = 0
KCO1 091245Z 11004KT 04/M03 A2986 RMK A01 T00391028  RH  062%=      5-min Rain = 0
KCO1 091246Z 11003KT 04/M03 A2987 RMK A01 T00391028  RH  062%=      5-min Rain = 0
KCO1 091247Z 11003KT 04/M03 A2987 RMK A01 T00381028  RH  062%=      5-min Rain = 0
KCO1 091248Z 12003KT 04/M03 A2987 RMK A01 T00381029  RH  062%=      5-min Rain = 0
KCO1 091249Z 12003KT 04/M03 A2987 RMK A01 T00371029  RH  062%=      5-min Rain = 0
KCO1 091250Z 14003KT 04/M03 A2987 RMK A01 T00371029  RH  062%=      5-min Rain = 0
KCO1 091251Z 14003KT 04/M03 A2987 RMK A01 T00371029  RH  062%=      5-min Rain = 0
KCO1 091252Z 14004KT 04/M03 A2987 RMK A01 T00371031  RH  061%=      5-min Rain = 0
KCO1 091253Z 13004KT 04/M03 A2987 RMK A01 T00371032  RH  061%=      5-min Rain = 0
KCO1 091254Z 13004KT 04/M03 A2987 RMK A01 T00361033  RH  061%=      5-min Rain = 0
KCO1 091255Z 13004KT 03/M03 A2987 RMK A01 T00341033  RH  061%=      5-min Rain = 0
KCO1 091256Z 13004KT 03/M03 A2987 RMK A01 T00331033  RH  062%=      5-min Rain = 0
KCO1 091257Z 13004KT 03/M03 A2987 RMK A01 T00331034  RH  062%=      5-min Rain = 0
KCO1 091258Z 13004KT 03/M03 A2987 RMK A01 T00321034  RH  062%=      5-min Rain = 0
KCO1 091259Z 14004KT 03/M03 A2987 RMK A01 T00311034  RH  062%=      5-min Rain = 0
KCO1 091300Z 14004KT 03/M03 A2987 RMK A01 T00311033  RH  063%=      5-min Rain = 0
KCO1 091301Z 14004KT 03/M03 A2987 RMK A01 T00301032  RH  063%=      5-min Rain = 0
KCO1 091302Z 14004KT 03/M03 A2987 RMK A01 T00311032  RH  064%=      5-min Rain = 0
KCO1 091303Z 14004KT 03/M03 A2987 RMK A01 T00311031  RH  064%=      5-min Rain = 0
KCO1 091304Z 14004KT 03/M03 A2987 RMK A01 T00311031  RH  063%=      5-min Rain = 0
KCO1 091305Z 15004KT 03/M03 A2987 RMK A01 T00321030  RH  064%=      5-min Rain = 0
KCO1 091306Z 16004KT 03/M03 A2987 RMK A01 T00331029  RH  064%=      5-min Rain = 0
KCO1 091307Z 16004KT 04/M03 A2987 RMK A01 T00351027  RH  064%=      5-min Rain = 0
KCO1 091308Z 16004KT 04/M03 A2987 RMK A01 T00371025  RH  064%=      5-min Rain = 0
KCO1 091309Z 17003KT 04/M02 A2987 RMK A01 T00401024  RH  063%=      5-min Rain = 0
KCO1 091310Z 16003KT 04/M02 A2987 RMK A01 T00421023  RH  063%=      5-min Rain = 0
KCO1 091311Z 17002KT 04/M02 A2987 RMK A01 T00431024  RH  062%=      5-min Rain = 0
KCO1 091312Z 16002KT 04/M03 A2987 RMK A01 T00431025  RH  061%=      5-min Rain = 0
KCO1 091313Z 15003KT 04/M03 A2987 RMK A01 T00431026  RH  061%=      5-min Rain = 0
KCO1 091314Z 15003KT 04/M03 A2987 RMK A01 T00421027  RH  061%=      5-min Rain = 0
KCO1 091315Z 14002KT 04/M03 A2987 RMK A01 T00411028  RH  061%=      5-min Rain = 0
KCO1 091316Z 14003KT 04/M03 A2987 RMK A01 T00411028  RH  061%=      5-min Rain = 0
KCO1 091317Z 14003KT 04/M03 A2987 RMK A01 T00411027  RH  061%=      5-min Rain = 0
KCO1 091318Z 15003KT 04/M03 A2987 RMK A01 T00411027  RH  061%=      5-min Rain = 0
KCO1 091319Z 16004KT 04/M03 A2987 RMK A01 T00421026  RH  061%=      5-min Rain = 0
KCO1 091320Z 17004KT 04/M03 A2987 RMK A01 T00421027  RH  061%=      5-min Rain = 0
KCO1 091321Z 17005KT 04/M03 A2987 RMK A01 T00421029  RH  060%=      5-min Rain = 0
KCO1 091322Z 17005KT 04/M03 A2987 RMK A01 T00411030  RH  060%=      5-min Rain = 0
KCO1 091323Z 17006KT 04/M03 A2987 RMK A01 T00411029  RH  061%=      5-min Rain = 0
KCO1 091324Z 17005KT 04/M03 A2987 RMK A01 T00411027  RH  061%=      5-min Rain = 0
KCO1 091325Z 17005KT 04/M03 A2987 RMK A01 T00421027  RH  061%=      5-min Rain = 0
KCO1 091326Z 17005KT 04/M03 A2987 RMK A01 T00431026  RH  061%=      5-min Rain = 0
KCO1 091327Z 17004KT 04/M03 A2987 RMK A01 T00441026  RH  060%=      5-min Rain = 0
KCO1 091328Z 16003KT 05/M03 A2987 RMK A01 T00451026  RH  060%=      5-min Rain = 0
KCO1 091329Z 15003KT 05/M02 A2987 RMK A01 T00481024  RH  060%=      5-min Rain = 0
KCO1 091330Z 14003KT 05/M02 A2987 RMK A01 T00501023  RH  059%=      5-min Rain = 0
KCO1 091331Z 15004KT 05/M02 A2987 RMK A01 T00521023  RH  058%=      5-min Rain = 0
KCO1 091332Z 15004KT 05/M02 A2987 RMK A01 T00541023  RH  058%=      5-min Rain = 0
KCO1 091333Z 14004KT 06/M02 A2987 RMK A01 T00551024  RH  057%=      5-min Rain = 0
KCO1 091334Z 14004KT 06/M02 A2987 RMK A01 T00551024  RH  057%=      5-min Rain = 0
KCO1 091335Z 13004KT 06/M03 A2987 RMK A01 T00561025  RH  056%=      5-min Rain = 0
KCO1 091336Z 11004KT 06/M03 A2987 RMK A01 T00561025  RH  056%=      5-min Rain = 0
KCO1 091337Z 11004KT 06/M03 A2987 RMK A01 T00561025  RH  056%=      5-min Rain = 0
KCO1 091338Z 11004KT 06/M03 A2987 RMK A01 T00571025  RH  056%=      5-min Rain = 0
KCO1 091339Z 12004KT 06/M03 A2987 RMK A01 T00571026  RH  055%=      5-min Rain = 0
KCO1 091340Z 10004KT 06/M03 A2987 RMK A01 T00581026  RH  055%=      5-min Rain = 0
KCO1 091341Z 09004KT 06/M03 A2987 RMK A01 T00591026  RH  054%=      5-min Rain = 0
KCO1 091342Z 09004KT 06/M03 A2988 RMK A01 T00601026  RH  054%=      5-min Rain = 0
KCO1 091343Z 09003KT 06/M03 A2988 RMK A01 T00601026  RH  054%=      5-min Rain = 0
KCO1 091344Z 09003KT 06/M03 A2988 RMK A01 T00611025  RH  054%=      5-min Rain = 0
KCO1 091345Z 10004KT 06/M02 A2988 RMK A01 T00611024  RH  054%=      5-min Rain = 0
KCO1 091346Z 10004KT 06/M02 A2988 RMK A01 T00611023  RH  055%=      5-min Rain = 0
KCO1 091347Z 12003KT 06/M02 A2988 RMK A01 T00611022  RH  055%=      5-min Rain = 0
KCO1 091348Z 11004KT 06/M02 A2987 RMK A01 T00611021  RH  055%=      5-min Rain = 0
KCO1 091349Z 12003KT 06/M02 A2988 RMK A01 T00621021  RH  055%=      5-min Rain = 0
KCO1 091350Z 11003KT 06/M02 A2988 RMK A01 T00621021  RH  055%=      5-min Rain = 0
KCO1 091351Z 09002KT 06/M02 A2988 RMK A01 T00621021  RH  055%=      5-min Rain = 0
KCO1 091352Z 09002KT 06/M02 A2988 RMK A01 T00621020  RH  055%=      5-min Rain = 0
KCO1 091353Z 10002KT 06/M02 A2988 RMK A01 T00631020  RH  056%=      5-min Rain = 0
KCO1 091354Z 11002KT 06/M02 A2988 RMK A01 T00631019  RH  056%=      5-min Rain = 0
KCO1 091355Z 12002KT 06/M02 A2988 RMK A01 T00641019  RH  056%=      5-min Rain = 0
KCO1 091356Z 13002KT 06/M02 A2988 RMK A01 T00641019  RH  056%=      5-min Rain = 0
KCO1 091357Z 14002KT 06/M02 A2988 RMK A01 T00641018  RH  055%=      5-min Rain = 0
KCO1 091358Z 13003KT 07/M02 A2988 RMK A01 T00651018  RH  055%=      5-min Rain = 0
KCO1 091359Z 13002KT 07/M02 A2988 RMK A01 T00661018  RH  055%=      5-min Rain = 0
KCO1 091400Z 14002KT 07/M02 A2988 RMK A01 T00661018  RH  055%=      5-min Rain = 0
KCO1 091401Z 15003KT 07/M02 A2988 RMK A01 T00671017  RH  055%=      5-min Rain = 0
KCO1 091402Z 15003KT 07/M02 A2988 RMK A01 T00671017  RH  055%=      5-min Rain = 0
KCO1 091403Z 16002KT 07/M02 A2988 RMK A01 T00681016  RH  055%=      5-min Rain = 0
KCO1 091404Z 15002KT 07/M02 A2988 RMK A01 T00691016  RH  055%=      5-min Rain = 0
KCO1 091405Z 14002KT 07/M02 A2988 RMK A01 T00691015  RH  055%=      5-min Rain = 0
KCO1 091406Z 14002KT 07/M02 A2988 RMK A01 T00701015  RH  054%=      5-min Rain = 0
KCO1 091407Z 14002KT 07/M02 A2988 RMK A01 T00711015  RH  054%=      5-min Rain = 0
KCO1 091408Z 13003KT 07/M02 A2988 RMK A01 T00721015  RH  054%=      5-min Rain = 0
KCO1 091409Z 11003KT 07/M02 A2988 RMK A01 T00731015  RH  054%=      5-min Rain = 0
KCO1 091410Z 11002KT 07/M02 A2988 RMK A01 T00741015  RH  053%=      5-min Rain = 0
KCO1 091411Z 12002KT 07/M01 A2988 RMK A01 T00741014  RH  053%=      5-min Rain = 0
KCO1 091412Z 12002KT 08/M02 A2988 RMK A01 T00751015  RH  053%=      5-min Rain = 0
KCO1 091413Z 13002KT 08/M01 A2988 RMK A01 T00751014  RH  053%=      5-min Rain = 0
KCO1 091414Z 13002KT 08/M01 A2988 RMK A01 T00761014  RH  053%=      5-min Rain = 0
KCO1 091415Z 15002KT 08/M01 A2988 RMK A01 T00761014  RH  053%=      5-min Rain = 0
KCO1 091416Z 15002KT 08/M01 A2988 RMK A01 T00771013  RH  053%=      5-min Rain = 0
KCO1 091417Z 15002KT 08/M01 A2988 RMK A01 T00771013  RH  053%=      5-min Rain = 0
KCO1 091418Z 16002KT 08/M01 A2988 RMK A01 T00781013  RH  053%=      5-min Rain = 0
KCO1 091419Z 16002KT 08/M01 A2988 RMK A01 T00791012  RH  052%=      5-min Rain = 0
KCO1 091420Z 14001KT 08/M01 A2989 RMK A01 T00801012  RH  052%=      5-min Rain = 0
KCO1 091421Z 13000KT 08/M01 A2989 RMK A01 T00801013  RH  052%=      5-min Rain = 0
KCO1 091422Z 00000KT 08/M01 A2989 RMK A01 T00811013  RH  051%=      5-min Rain = 0
KCO1 091423Z 00000KT 08/M01 A2989 RMK A01 T00821012  RH  051%=      5-min Rain = 0
KCO1 091424Z 00000KT 08/M01 A2989 RMK A01 T00831013  RH  051%=      5-min Rain = 0
KCO1 091425Z 20000KT 08/M01 A2989 RMK A01 T00831013  RH  051%=      5-min Rain = 0
KCO1 091426Z 20001KT 08/M01 A2989 RMK A01 T00831014  RH  050%=      5-min Rain = 0
KCO1 091427Z 20001KT 08/M02 A2989 RMK A01 T00831015  RH  050%=      5-min Rain = 0
KCO1 091428Z 20002KT 08/M02 A2989 RMK A01 T00841016  RH  050%=      5-min Rain = 0
KCO1 091429Z 19001KT 08/M02 A2989 RMK A01 T00841016  RH  049%=      5-min Rain = 0
KCO1 091430Z 17001KT 08/M02 A2989 RMK A01 T00841017  RH  049%=      5-min Rain = 0
KCO1 091431Z 16002KT 08/M02 A2989 RMK A01 T00841017  RH  049%=      5-min Rain = 0
KCO1 091432Z 16001KT 09/M02 A2989 RMK A01 T00851018  RH  048%=      5-min Rain = 0
KCO1 091433Z 16001KT 09/M02 A2989 RMK A01 T00861019  RH  048%=      5-min Rain = 0
KCO1 091434Z 17002KT 09/M02 A2989 RMK A01 T00871019  RH  048%=      5-min Rain = 0
KCO1 091435Z 18002KT 09/M02 A2989 RMK A01 T00871018  RH  048%=      5-min Rain = 0
KCO1 091436Z 18002KT 09/M02 A2989 RMK A01 T00881017  RH  048%=      5-min Rain = 0
KCO1 091437Z 18002KT 09/M02 A2989 RMK A01 T00881017  RH  048%=      5-min Rain = 0
KCO1 091438Z 17002KT 09/M02 A2989 RMK A01 T00891018  RH  047%=      5-min Rain = 0
KCO1 091439Z 18001KT 09/M02 A2989 RMK A01 T00901018  RH  047%=      5-min Rain = 0
KCO1 091440Z 18002KT 09/M02 A2989 RMK A01 T00911016  RH  047%=      5-min Rain = 0
KCO1 091441Z 18002KT 09/M02 A2989 RMK A01 T00941015  RH  047%=      5-min Rain = 0
KCO1 091442Z 19001KT 10/M02 A2989 RMK A01 T00951016  RH  046%=      5-min Rain = 0
KCO1 091443Z 19001KT 10/M02 A2989 RMK A01 T00961016  RH  045%=      5-min Rain = 0
KCO1 091444Z 19000KT 10/M02 A2989 RMK A01 T00971016  RH  045%=      5-min Rain = 0
KCO1 091445Z 00000KT 10/M02 A2989 RMK A01 T00991017  RH  044%=      5-min Rain = 0
KCO1 091446Z 00000KT 10/M02 A2989 RMK A01 T01001019  RH  043%=      5-min Rain = 0
KCO1 091447Z 35000KT 10/M02 A2989 RMK A01 T01021017  RH  043%=      5-min Rain = 0
KCO1 091448Z 35001KT 10/M02 A2989 RMK A01 T01031016  RH  043%=      5-min Rain = 0
KCO1 091449Z 34001KT 10/M02 A2989 RMK A01 T01041015  RH  043%=      5-min Rain = 0
KCO1 091450Z 00000KT 11/M02 A2989 RMK A01 T01051017  RH  043%=      5-min Rain = 0
KCO1 091451Z 00000KT 11/M02 A2989 RMK A01 T01061016  RH  042%=      5-min Rain = 0
KCO1 091452Z 31000KT 11/M02 A2989 RMK A01 T01091015  RH  042%=      5-min Rain = 0
KCO1 091453Z 30001KT 11/M02 A2989 RMK A01 T01111016  RH  041%=      5-min Rain = 0
KCO1 091454Z 28001KT 11/M02 A2989 RMK A01 T01121019  RH  040%=      5-min Rain = 0
KCO1 091455Z 29001KT 11/M02 A299 RMK A01 T01121021  RH  040%=      5-min Rain = 0
KCO1 091456Z 31002KT 11/M02 A299 RMK A01 T01121022  RH  039%=      5-min Rain = 0
KCO1 091457Z 31001KT 11/M02 A299 RMK A01 T01121022  RH  039%=      5-min Rain = 0
KCO1 091458Z 30001KT 11/M02 A299 RMK A01 T01121022  RH  039%=      5-min Rain = 0
KCO1 091459Z 30001KT 11/M02 A299 RMK A01 T01111023  RH  039%=      5-min Rain = 0
KCO1 091500Z 31000KT 11/M02 A299 RMK A01 T01111024  RH  039%=      5-min Rain = 0
KCO1 091501Z 32001KT 11/M02 A299 RMK A01 T01121024  RH  039%=      5-min Rain = 0
KCO1 091502Z 33001KT 11/M02 A299 RMK A01 T01121022  RH  039%=      5-min Rain = 0
KCO1 091503Z 29001KT 11/M02 A299 RMK A01 T01131021  RH  039%=      5-min Rain = 0
KCO1 091504Z 31001KT 11/M02 A299 RMK A01 T01131022  RH  039%=      5-min Rain = 0
KCO1 091505Z 31002KT 11/M02 A299 RMK A01 T01131023  RH  039%=      5-min Rain = 0
KCO1 091506Z 31001KT 11/M02 A299 RMK A01 T01131022  RH  039%=      5-min Rain = 0
KCO1 091507Z 30001KT 11/M02 A299 RMK A01 T01141023  RH  038%=      5-min Rain = 0
KCO1 091508Z 30001KT 11/M03 A299 RMK A01 T01131026  RH  038%=      5-min Rain = 0
KCO1 091509Z 31002KT 11/M03 A299 RMK A01 T01141026  RH  038%=      5-min Rain = 0
KCO1 091510Z 30001KT 12/M03 A299 RMK A01 T01151026  RH  037%=      5-min Rain = 0
KCO1 091511Z 32002KT 12/M03 A299 RMK A01 T01151027  RH  037%=      5-min Rain = 0
KCO1 091512Z 32002KT 12/M03 A299 RMK A01 T01151027  RH  037%=      5-min Rain = 0
KCO1 091513Z 34002KT 12/M03 A299 RMK A01 T01161028  RH  037%=      5-min Rain = 0
KCO1 091514Z 35002KT 12/M03 A299 RMK A01 T01161028  RH  036%=      5-min Rain = 0
KCO1 091515Z 34002KT 12/M03 A299 RMK A01 T01171028  RH  036%=      5-min Rain = 0
KCO1 091516Z 34003KT 12/M03 A299 RMK A01 T01181027  RH  036%=      5-min Rain = 0
KCO1 091517Z 34003KT 12/M03 A299 RMK A01 T01181025  RH  037%=      5-min Rain = 0
KCO1 091518Z 35003KT 12/M02 A299 RMK A01 T01181024  RH  037%=      5-min Rain = 0
KCO1 091519Z 36002KT 12/M02 A299 RMK A01 T01181023  RH  037%=      5-min Rain = 0
KCO1 091520Z 36002KT 12/M02 A299 RMK A01 T01181024  RH  037%=      5-min Rain = 0
KCO1 091521Z 36002KT 12/M03 A299 RMK A01 T01181025  RH  037%=      5-min Rain = 0
KCO1 091522Z 01002KT 12/M03 A299 RMK A01 T01181026  RH  037%=      5-min Rain = 0
KCO1 091523Z 02003KT 12/M02 A299 RMK A01 T01181024  RH  037%=      5-min Rain = 0
KCO1 091524Z 02002KT 12/M02 A299 RMK A01 T01181024  RH  037%=      5-min Rain = 0
KCO1 091525Z 01002KT 12/M03 A299 RMK A01 T01181025  RH  037%=      5-min Rain = 0
KCO1 091526Z 00003KT 12/M02 A299 RMK A01 T01181024  RH  037%=      5-min Rain = 0
KCO1 091527Z 35003KT 12/M02 A299 RMK A01 T01181023  RH  037%=      5-min Rain = 0
KCO1 091528Z 02002KT 12/M02 A299 RMK A01 T01181024  RH  037%=      5-min Rain = 0
KCO1 091529Z 00002KT 12/M02 A299 RMK A01 T01181023  RH  037%=      5-min Rain = 0
KCO1 091530Z 35002KT 12/M02 A299 RMK A01 T01181023  RH  037%=      5-min Rain = 0
KCO1 091531Z 36003KT 12/M02 A299 RMK A01 T01191022  RH  038%=      5-min Rain = 0
KCO1 091532Z 35003KT 12/M02 A299 RMK A01 T01191021  RH  038%=      5-min Rain = 0
KCO1 091533Z 35003KT 12/M02 A299 RMK A01 T01191018  RH  038%=      5-min Rain = 0
KCO1 091534Z 00003KT 12/M02 A299 RMK A01 T01201017  RH  039%=      5-min Rain = 0
KCO1 091535Z 35003KT 12/M02 A299 RMK A01 T01201019  RH  038%=      5-min Rain = 0
KCO1 091536Z 34003KT 12/M02 A299 RMK A01 T01211019  RH  038%=      5-min Rain = 0
KCO1 091537Z 33003KT 12/M02 A299 RMK A01 T01221020  RH  037%=      5-min Rain = 0
KCO1 091538Z 33002KT 12/M02 A299 RMK A01 T01221023  RH  036%=      5-min Rain = 0
KCO1 091539Z 34003KT 12/M02 A299 RMK A01 T01221020  RH  037%=      5-min Rain = 0
KCO1 091540Z 33003KT 12/M02 A299 RMK A01 T01221021  RH  037%=      5-min Rain = 0
KCO1 091541Z 34003KT 12/M02 A299 RMK A01 T01231021  RH  037%=      5-min Rain = 0
KCO1 091542Z 35003KT 12/M02 A299 RMK A01 T01241022  RH  036%=      5-min Rain = 0
KCO1 091543Z 35003KT 12/M02 A299 RMK A01 T01241022  RH  036%=      5-min Rain = 0
KCO1 091544Z 34003KT 12/M02 A299 RMK A01 T01231021  RH  036%=      5-min Rain = 0
KCO1 091545Z 35002KT 12/M02 A299 RMK A01 T01241021  RH  036%=      5-min Rain = 0
KCO1 091546Z 34003KT 13/M02 A299 RMK A01 T01251020  RH  036%=      5-min Rain = 0
KCO1 091547Z 34002KT 13/M02 A299 RMK A01 T01261021  RH  036%=      5-min Rain = 0
KCO1 091548Z 35002KT 13/M02 A299 RMK A01 T01261021  RH  036%=      5-min Rain = 0
KCO1 091549Z 01001KT 13/M02 A299 RMK A01 T01261021  RH  036%=      5-min Rain = 0
KCO1 091550Z 00003KT 13/M02 A299 RMK A01 T01261021  RH  036%=      5-min Rain = 0
KCO1 091551Z 36002KT 13/M02 A299 RMK A01 T01271022  RH  036%=      5-min Rain = 0
KCO1 091552Z 04001KT 13/M02 A299 RMK A01 T01271022  RH  036%=      5-min Rain = 0
KCO1 091553Z 36001KT 13/M02 A299 RMK A01 T01281021  RH  035%=      5-min Rain = 0
KCO1 091554Z 02002KT 13/M02 A299 RMK A01 T01291020  RH  035%=      5-min Rain = 0
KCO1 091555Z 01001KT 13/M02 A299 RMK A01 T01301021  RH  035%=      5-min Rain = 0
KCO1 091556Z 02001KT 13/M02 A299 RMK A01 T01311022  RH  035%=      5-min Rain = 0
KCO1 091557Z 00000KT 13/M02 A299 RMK A01 T01311022  RH  034%=      5-min Rain = 0
KCO1 091558Z 04000KT 13/M02 A299 RMK A01 T01331023  RH  034%=      5-min Rain = 0
KCO1 091559Z 03001KT 13/M02 A299 RMK A01 T01341022  RH  034%=      5-min Rain = 0
KCO1 091600Z 31001KT 14/M02 A299 RMK A01 T01361023  RH  033%=      5-min Rain = 0
KCO1 091601Z 31000KT 14/M02 A299 RMK A01 T01371024  RH  033%=      5-min Rain = 0
KCO1 091602Z 31001KT 14/M02 A299 RMK A01 T01371024  RH  033%=      5-min Rain = 0
KCO1 091603Z 32001KT 14/M02 A299 RMK A01 T01381022  RH  033%=      5-min Rain = 0
KCO1 091604Z 32001KT 14/M02 A299 RMK A01 T01391023  RH  033%=      5-min Rain = 0
KCO1 091605Z 35001KT 14/M03 A299 RMK A01 T01391025  RH  032%=      5-min Rain = 0
KCO1 091606Z 35001KT 14/M03 A299 RMK A01 T01391025  RH  032%=      5-min Rain = 0
KCO1 091607Z 32000KT 14/M02 A299 RMK A01 T01391024  RH  032%=      5-min Rain = 0
KCO1 091608Z 32001KT 14/M02 A299 RMK A01 T01411023  RH  032%=      5-min Rain = 0
KCO1 091609Z 29001KT 14/M02 A299 RMK A01 T01421023  RH  032%=      5-min Rain = 0
KCO1 091610Z 29000KT 14/M03 A299 RMK A01 T01441025  RH  031%=      5-min Rain = 0
KCO1 091611Z 34001KT 15/M02 A299 RMK A01 T01451024  RH  031%=      5-min Rain = 0
KCO1 091612Z 01001KT 15/M02 A299 RMK A01 T01471024  RH  031%=      5-min Rain = 0
KCO1 091613Z 02002KT 15/M03 A299 RMK A01 T01461025  RH  031%=      5-min Rain = 0
KCO1 091614Z 01002KT 15/M02 A299 RMK A01 T01471022  RH  031%=      5-min Rain = 0
KCO1 091615Z 34001KT 15/M02 A299 RMK A01 T01471023  RH  031%=      5-min Rain = 0
KCO1 091616Z 35002KT 15/M02 A299 RMK A01 T01481023  RH  031%=      5-min Rain = 0
KCO1 091617Z 00001KT 15/M02 A299 RMK A01 T01491024  RH  030%=      5-min Rain = 0
KCO1 091618Z 36001KT 15/M03 A299 RMK A01 T01491025  RH  030%=      5-min Rain = 0
KCO1 091619Z 00002KT 15/M03 A299 RMK A01 T01501025  RH  030%=      5-min Rain = 0
KCO1 091620Z 00003KT 15/M02 A299 RMK A01 T01511024  RH  030%=      5-min Rain = 0
KCO1 091621Z 01003KT 15/M02 A299 RMK A01 T01521023  RH  030%=      5-min Rain = 0
KCO1 091622Z 02002KT 15/M03 A299 RMK A01 T01521025  RH  030%=      5-min Rain = 0
KCO1 091623Z 03003KT 15/M02 A299 RMK A01 T01531022  RH  030%=      5-min Rain = 0
KCO1 091624Z 00002KT 15/M02 A299 RMK A01 T01531023  RH  030%=      5-min Rain = 0
KCO1 091625Z 01003KT 15/M02 A299 RMK A01 T01531023  RH  030%=      5-min Rain = 0
KCO1 091626Z 02003KT 15/M02 A299 RMK A01 T01541024  RH  029%=      5-min Rain = 0
KCO1 091627Z 01003KT 15/M02 A299 RMK A01 T01541023  RH  029%=      5-min Rain = 0
KCO1 091628Z 02002KT 16/M02 A299 RMK A01 T01551024  RH  029%=      5-min Rain = 0
KCO1 091629Z 02003KT 16/M02 A299 RMK A01 T01561024  RH  029%=      5-min Rain = 0
KCO1 091630Z 35002KT 16/M02 A299 RMK A01 T01561024  RH  029%=      5-min Rain = 0
KCO1 091631Z 35002KT 16/M02 A299 RMK A01 T01561024  RH  029%=      5-min Rain = 0
KCO1 091632Z 01002KT 16/M02 A299 RMK A01 T01571022  RH  029%=      5-min Rain = 0
KCO1 091633Z 02002KT 16/M02 A299 RMK A01 T01591022  RH  029%=      5-min Rain = 0
KCO1 091634Z 03002KT 16/M02 A299 RMK A01 T01591023  RH  029%=      5-min Rain = 0
KCO1 091635Z 02001KT 16/M02 A299 RMK A01 T01591024  RH  028%=      5-min Rain = 0
KCO1 091636Z 07001KT 16/M02 A299 RMK A01 T01601024  RH  028%=      5-min Rain = 0
KCO1 091637Z 07002KT 16/M02 A299 RMK A01 T01621022  RH  028%=      5-min Rain = 0
KCO1 091638Z 05001KT 16/M02 A299 RMK A01 T01631020  RH  028%=      5-min Rain = 0
KCO1 091639Z 03001KT 16/M02 A299 RMK A01 T01641021  RH  028%=      5-min Rain = 0
KCO1 091640Z 04002KT 16/M02 A299 RMK A01 T01641022  RH  028%=      5-min Rain = 0
KCO1 091641Z 05003KT 16/M02 A299 RMK A01 T01641019  RH  029%=      5-min Rain = 0
KCO1 091642Z 04002KT 17/M02 A299 RMK A01 T01651018  RH  029%=      5-min Rain = 0
KCO1 091643Z 05001KT 17/M02 A299 RMK A01 T01651019  RH  028%=      5-min Rain = 0
KCO1 091644Z 06002KT 16/M02 A299 RMK A01 T01641019  RH  029%=      5-min Rain = 0
KCO1 091645Z 06002KT 16/M02 A299 RMK A01 T01641019  RH  028%=      5-min Rain = 0
KCO1 091646Z 03002KT 17/M02 A299 RMK A01 T01651018  RH  029%=      5-min Rain = 0
KCO1 091647Z 03002KT 17/M02 A299 RMK A01 T01651019  RH  028%=      5-min Rain = 0
KCO1 091648Z 01002KT 17/M02 A299 RMK A01 T01651021  RH  028%=      5-min Rain = 0
KCO1 091649Z 02001KT 17/M02 A299 RMK A01 T01651022  RH  028%=      5-min Rain = 0
KCO1 091650Z 35001KT 17/M02 A299 RMK A01 T01661022  RH  028%=      5-min Rain = 0
KCO1 091651Z 35001KT 17/M02 A299 RMK A01 T01661022  RH  027%=      5-min Rain = 0
KCO1 091652Z 36001KT 17/M02 A299 RMK A01 T01661023  RH  027%=      5-min Rain = 0
KCO1 091653Z 35001KT 17/M02 A299 RMK A01 T01681021  RH  027%=      5-min Rain = 0
KCO1 091654Z 32001KT 17/M02 A299 RMK A01 T01701024  RH  027%=      5-min Rain = 0
KCO1 091655Z 34001KT 17/M03 A299 RMK A01 T01711025  RH  026%=      5-min Rain = 0
KCO1 091656Z 34002KT 17/M02 A299 RMK A01 T01721024  RH  026%=      5-min Rain = 0
KCO1 091657Z 32000KT 17/M02 A299 RMK A01 T01731024  RH  026%=      5-min Rain = 0
KCO1 091658Z 02001KT 17/M03 A299 RMK A01 T01731026  RH  026%=      5-min Rain = 0
KCO1 091659Z 08000KT 18/M03 A299 RMK A01 T01751025  RH  025%=      5-min Rain = 0
KCO1 091700Z 07001KT 18/M03 A299 RMK A01 T01771025  RH  025%=      5-min Rain = 0
KCO1 091701Z 04002KT 18/M03 A299 RMK A01 T01781026  RH  025%=      5-min Rain = 0
KCO1 091702Z 29001KT 18/M03 A299 RMK A01 T01791027  RH  025%=      5-min Rain = 0
KCO1 091703Z 23003KT 18/M03 A299 RMK A01 T01811027  RH  024%=      5-min Rain = 0
KCO1 091704Z 22003KT 18/M03 A299 RMK A01 T01821029  RH  024%=      5-min Rain = 0
KCO1 091705Z 23002KT 18/M03 A299 RMK A01 T01831029  RH  024%=      5-min Rain = 0
KCO1 091706Z 24002KT 18/M03 A299 RMK A01 T01841031  RH  023%=      5-min Rain = 0
KCO1 091707Z 23002KT 18/M03 A299 RMK A01 T01841032  RH  023%=      5-min Rain = 0
KCO1 091708Z 25002KT 18/M03 A299 RMK A01 T01841032  RH  023%=      5-min Rain = 0
KCO1 091709Z 25003KT 18/M04 A299 RMK A01 T01841035  RH  022%=      5-min Rain = 0
KCO1 091710Z 27003KT 19/M03 A299 RMK A01 T01851034  RH  022%=      5-min Rain = 0
KCO1 091711Z 29003KT 19/M04 A299 RMK A01 T01861035  RH  022%=      5-min Rain = 0
KCO1 091712Z 28003KT 19/M04 A299 RMK A01 T01861036  RH  022%=      5-min Rain = 0
KCO1 091713Z 25002KT 19/M04 A299 RMK A01 T01871038  RH  021%=      5-min Rain = 0
KCO1 091714Z 26004KT 19/M04 A299 RMK A01 T01881039  RH  021%=      5-min Rain = 0
KCO1 091715Z 26003KT 19/M04 A299 RMK A01 T01891040  RH  021%=      5-min Rain = 0
KCO1 091716Z 25003KT 19/M04 A299 RMK A01 T01901038  RH  021%=      5-min Rain = 0
KCO1 091717Z 25003KT 19/M04 A299 RMK A01 T01911037  RH  021%=      5-min Rain = 0
KCO1 091718Z 26003KT 19/M04 A299 RMK A01 T01911036  RH  021%=      5-min Rain = 0
KCO1 091719Z 29003KT 19/M04 A299 RMK A01 T01911035  RH  021%=      5-min Rain = 0
KCO1 091720Z 26003KT 19/M04 A299 RMK A01 T01921038  RH  021%=      5-min Rain = 0
KCO1 091721Z 26005KT 20/M04 A299 RMK A01 T01951040  RH  020%=      5-min Rain = 0
KCO1 091722Z 27003KT 20/M04 A299 RMK A01 T01951040  RH  020%=      5-min Rain = 0
KCO1 091723Z 27003KT 20/M04 A299 RMK A01 T01951041  RH  020%=      5-min Rain = 0
KCO1 091724Z 25003KT 20/M04 A299 RMK A01 T01961041  RH  020%=      5-min Rain = 0
KCO1 091725Z 26002KT 20/M04 A299 RMK A01 T01971041  RH  020%=      5-min Rain = 0
KCO1 091726Z 29003KT 20/M04 A299 RMK A01 T01991040  RH  020%=      5-min Rain = 0
KCO1 091727Z 28002KT 20/M04 A299 RMK A01 T01991041  RH  019%=      5-min Rain = 0
KCO1 091728Z 29003KT 20/M04 A299 RMK A01 T01991042  RH  019%=      5-min Rain = 0
KCO1 091729Z 30004KT 20/M04 A299 RMK A01 T01991044  RH  019%=      5-min Rain = 0
KCO1 091730Z 31004KT 20/M04 A299 RMK A01 T01991043  RH  019%=      5-min Rain = 0
KCO1 091731Z 33003KT 20/M05 A2989 RMK A01 T02001045  RH  019%=      5-min Rain = 0
KCO1 091732Z 34004KT 20/M04 A2989 RMK A01 T02001044  RH  019%=      5-min Rain = 0
KCO1 091733Z 33003KT 20/M04 A2989 RMK A01 T02021041  RH  019%=      5-min Rain = 0
KCO1 091734Z 31003KT 20/M04 A2989 RMK A01 T02031042  RH  019%=      5-min Rain = 0
KCO1 091735Z 32004KT 21/M04 A2989 RMK A01 T02051043  RH  018%=      5-min Rain = 0
KCO1 091736Z 30003KT 21/M04 A2989 RMK A01 T02061044  RH  018%=      5-min Rain = 0
KCO1 091737Z 30005KT 21/M04 A2989 RMK A01 T02081042  RH  018%=      5-min Rain = 0
KCO1 091738Z 31005KT 21/M05 A2989 RMK A01 T02101045  RH  018%=      5-min Rain = 0
KCO1 091739Z 31007KT 21/M05 A2989 RMK A01 T02111049  RH  017%=      5-min Rain = 0
KCO1 091740Z 30005KT 21/M05 A2989 RMK A01 T02101050  RH  017%=      5-min Rain = 0
KCO1 091741Z 28005KT 21/M05 A2989 RMK A01 T02081051  RH  017%=      5-min Rain = 0
KCO1 091742Z 29005KT 21/M05 A2989 RMK A01 T02081053  RH  017%=      5-min Rain = 0
KCO1 091743Z 30006KT 21/M06 A2989 RMK A01 T02091056  RH  016%=      5-min Rain = 0
KCO1 091744Z 28005KT 21/M06 A2989 RMK A01 T02091059  RH  016%=      5-min Rain = 0
KCO1 091745Z 29007KT 21/M06 A2989 RMK A01 T02081057  RH  016%=      5-min Rain = 0
KCO1 091746Z 29007KT 21/M06 A2989 RMK A01 T02081059  RH  016%=      5-min Rain = 0
KCO1 091747Z 30007KT 21/M06 A2989 RMK A01 T02091060  RH  016%=      5-min Rain = 0
KCO1 091748Z 29007KT 21/M06 A2989 RMK A01 T02091062  RH  016%=      5-min Rain = 0
KCO1 091749Z 28007KT 21/M06 A2989 RMK A01 T02111062  RH  015%=      5-min Rain = 0
KCO1 091750Z 28008KT 21/M06 A2989 RMK A01 T02131061  RH  015%=      5-min Rain = 0
KCO1 091751Z 28007KT 21/M06 A2989 RMK A01 T02141061  RH  015%=      5-min Rain = 0
KCO1 091752Z 29007KT 22/M06 A2988 RMK A01 T02161059  RH  015%=      5-min Rain = 0
KCO1 091753Z 30009KT 22/M06 A2988 RMK A01 T02181063  RH  015%=      5-min Rain = 0
KCO1 091754Z 30008KT 22/M07 A2988 RMK A01 T02181067  RH  014%=      5-min Rain = 0
KCO1 091755Z 29009KT 22/M07 A2988 RMK A01 T02201068  RH  014%=      5-min Rain = 0
KCO1 091756Z 29010KT 22/M07 A2988 RMK A01 T02221074  RH  013%=      5-min Rain = 0
KCO1 091757Z 29009KT 22/M07 A2988 RMK A01 T02241070  RH  013%=      5-min Rain = 0
KCO1 091758Z 28009KT 23/M07 A2988 RMK A01 T02271070  RH  013%=      5-min Rain = 0
KCO1 091759Z 30009KT 23/M07 A2988 RMK A01 T02281073  RH  013%=      5-min Rain = 0
KCO1 091800Z 29007KT 23/M07 A2988 RMK A01 T02291074  RH  013%=      5-min Rain = 0
KCO1 091801Z 29007KT 23/M08 A2988 RMK A01 T02301076  RH  012%=      5-min Rain = 0
KCO1 091802Z 30008KT 23/M08 A2988 RMK A01 T02311078  RH  012%=      5-min Rain = 0
KCO1 091803Z 29009KT 23/M08 A2988 RMK A01 T02321078  RH  012%=      5-min Rain = 0
KCO1 091804Z 28007KT 23/M08 A2988 RMK A01 T02331083  RH  011%=      5-min Rain = 0
KCO1 091805Z 29008KT 23/M08 A2988 RMK A01 T02321082  RH  012%=      5-min Rain = 0
KCO1 091806Z 30008KT 23/M08 A2988 RMK A01 T02321082  RH  012%=      5-min Rain = 0
KCO1 091807Z 30009KT 23/M08 A2988 RMK A01 T02321082  RH  012%=      5-min Rain = 0
KCO1 091808Z 29009KT 23/M08 A2987 RMK A01 T02331084  RH  011%=      5-min Rain = 0
KCO1 091809Z 29010KT 23/M09 A2987 RMK A01 T02341085  RH  011%=      5-min Rain = 0
KCO1 091810Z 31008KT 24/M08 A2987 RMK A01 T02361084  RH  011%=      5-min Rain = 0
KCO1 091811Z 29008KT 24/M08 A2987 RMK A01 T02361083  RH  011%=      5-min Rain = 0
KCO1 091812Z 29009KT 24/M09 A2987 RMK A01 T02371086  RH  011%=      5-min Rain = 0
KCO1 091813Z 30010KT 24/M09 A2987 RMK A01 T02381088  RH  011%=      5-min Rain = 0
KCO1 091814Z 29010KT 24/M09 A2987 RMK A01 T02371088  RH  011%=      5-min Rain = 0
KCO1 091815Z 29010KT 24/M09 A2987 RMK A01 T02351088  RH  011%=      5-min Rain = 0
KCO1 091816Z 31008KT 24/M09 A2987 RMK A01 T02351087  RH  011%=      5-min Rain = 0
KCO1 091817Z 30009KT 24/M09 A2987 RMK A01 T02351086  RH  011%=      5-min Rain = 0
KCO1 091818Z 30008KT 24/M09 A2987 RMK A01 T02361085  RH  011%=      5-min Rain = 0
KCO1 091819Z 31010KT 24/M08 A2987 RMK A01 T02371084  RH  011%=      5-min Rain = 0
KCO1 091820Z 29009KT 24/M08 A2987 RMK A01 T02361081  RH  011%=      5-min Rain = 0
KCO1 091821Z 30009KT 24/M09 A2987 RMK A01 T02361085  RH  011%=      5-min Rain = 0
KCO1 091822Z 30009KT 24/M08 A2987 RMK A01 T02371084  RH  011%=      5-min Rain = 0
KCO1 091823Z 31008KT 24/M08 A2987 RMK A01 T02371081  RH  011%=      5-min Rain = 0
KCO1 091824Z 30009KT 24/M08 A2987 RMK A01 T02371080  RH  011%=      5-min Rain = 0
KCO1 091825Z 31007KT 24/M08 A2987 RMK A01 T02381081  RH  011%=      5-min Rain = 0
KCO1 091826Z 30010KT 24/M08 A2987 RMK A01 T02401083  RH  011%=      5-min Rain = 0
KCO1 091827Z 29010KT 24/M09 A2987 RMK A01 T02411086  RH  011%=      5-min Rain = 0
KCO1 091828Z 29011KT 24/M09 A2987 RMK A01 T02401086  RH  011%=      5-min Rain = 0
KCO1 091829Z 30008KT 24/M09 A2987 RMK A01 T02401085  RH  011%=      5-min Rain = 0
KCO1 091830Z 29007KT 24/M08 A2987 RMK A01 T02401084  RH  011%=      5-min Rain = 0
KCO1 091831Z 30007KT 24/M08 A2987 RMK A01 T02421080  RH  011%=      5-min Rain = 0
KCO1 091832Z 29011KT 24/M08 A2987 RMK A01 T02441084  RH  011%=      5-min Rain = 0
KCO1 091833Z 29009KT 24/M09 A2987 RMK A01 T02421090  RH  010%=      5-min Rain = 0
KCO1 091834Z 30011KT 24/M09 A2987 RMK A01 T02421088  RH  010%=      5-min Rain = 0
KCO1 091835Z 30010KT 24/M09 A2987 RMK A01 T02421087  RH  010%=      5-min Rain = 0
KCO1 091836Z 30010KT 24/M09 A2987 RMK A01 T02431085  RH  011%=      5-min Rain = 0
KCO1 091837Z 30008KT 24/M09 A2987 RMK A01 T02421085  RH  011%=      5-min Rain = 0
KCO1 091838Z 31009KT 24/M09 A2987 RMK A01 T02431085  RH  011%=      5-min Rain = 0
KCO1 091839Z 31009KT 24/M09 A2987 RMK A01 T02431089  RH  010%=      5-min Rain = 0
KCO1 091840Z 32010KT 24/M09 A2987 RMK A01 T02431090  RH  010%=      5-min Rain = 0
KCO1 091841Z 32010KT 24/M09 A2987 RMK A01 T02431091  RH  010%=      5-min Rain = 0
KCO1 091842Z 32009KT 24/M09 A2986 RMK A01 T02421089  RH  010%=      5-min Rain = 0
KCO1 091843Z 31010KT 24/M09 A2986 RMK A01 T02421085  RH  011%=      5-min Rain = 0
KCO1 091844Z 31008KT 24/M08 A2986 RMK A01 T02431083  RH  011%=      5-min Rain = 0
KCO1 091845Z 32009KT 24/M08 A2986 RMK A01 T02441083  RH  011%=      5-min Rain = 0
KCO1 091846Z 32008KT 24/M09 A2986 RMK A01 T02421086  RH  011%=      5-min Rain = 0
KCO1 091847Z 32008KT 24/M09 A2986 RMK A01 T02421085  RH  011%=      5-min Rain = 0
KCO1 091848Z 32008KT 24/M09 A2986 RMK A01 T02421085  RH  011%=      5-min Rain = 0
KCO1 091849Z 31010KT 24/M08 A2986 RMK A01 T02431083  RH  011%=      5-min Rain = 0
KCO1 091850Z 30008KT 24/M08 A2986 RMK A01 T02441084  RH  011%=      5-min Rain = 0
KCO1 091851Z 31010KT 25/M09 A2986 RMK A01 T02461085  RH  010%=      5-min Rain = 0
KCO1 091852Z 30010KT 25/M09 A2986 RMK A01 T02461087  RH  010%=      5-min Rain = 0
KCO1 091853Z 30009KT 25/M09 A2986 RMK A01 T02451087  RH  010%=      5-min Rain = 0
KCO1 091854Z 29009KT 25/M09 A2986 RMK A01 T02451087  RH  010%=      5-min Rain = 0
KCO1 091855Z 30010KT 25/M08 A2986 RMK A01 T02451084  RH  011%=      5-min Rain = 0
KCO1 091856Z 29010KT 25/M09 A2986 RMK A01 T02461085  RH  010%=      5-min Rain = 0
KCO1 091857Z 31008KT 25/M09 A2987 RMK A01 T02471085  RH  010%=      5-min Rain = 0
KCO1 091858Z 31010KT 25/M08 A2987 RMK A01 T02471084  RH  010%=      5-min Rain = 0
KCO1 091859Z 30008KT 25/M08 A2987 RMK A01 T02461084  RH  010%=      5-min Rain = 0
KCO1 091900Z 33009KT 25/M08 A2987 RMK A01 T02451082  RH  011%=      5-min Rain = 0
KCO1 091901Z 33010KT 25/M08 A2987 RMK A01 T02451082  RH  011%=      5-min Rain = 0
KCO1 091902Z 32009KT 25/M08 A2987 RMK A01 T02461083  RH  011%=      5-min Rain = 0
KCO1 091903Z 32010KT 25/M09 A2987 RMK A01 T02461085  RH  010%=      5-min Rain = 0
KCO1 091904Z 33008KT 25/M09 A2987 RMK A01 T02451086  RH  010%=      5-min Rain = 0
KCO1 091905Z 31010KT 25/M09 A2987 RMK A01 T02451086  RH  010%=      5-min Rain = 0
KCO1 091906Z 30009KT 25/M09 A2987 RMK A01 T02461087  RH  010%=      5-min Rain = 0
KCO1 091907Z 31008KT 25/M09 A2986 RMK A01 T02451087  RH  010%=      5-min Rain = 0
KCO1 091908Z 31008KT 25/M09 A2986 RMK A01 T02451085  RH  011%=      5-min Rain = 0
KCO1 091909Z 31006KT 25/M08 A2986 RMK A01 T02461081  RH  011%=      5-min Rain = 0
KCO1 091910Z 31008KT 25/M08 A2986 RMK A01 T02511076  RH  011%=      5-min Rain = 0
KCO1 091911Z 31008KT 25/M08 A2986 RMK A01 T02541082  RH  010%=      5-min Rain = 0
KCO1 091912Z 31007KT 25/M09 A2986 RMK A01 T02521085  RH  010%=      5-min Rain = 0
KCO1 091913Z 32007KT 25/M09 A2986 RMK A01 T02511086  RH  010%=      5-min Rain = 0
KCO1 091914Z 31008KT 25/M08 A2986 RMK A01 T02511084  RH  010%=      5-min Rain = 0
KCO1 091915Z 32006KT 25/M08 A2986 RMK A01 T02521083  RH  010%=      5-min Rain = 0
KCO1 091916Z 31007KT 25/M08 A2986 RMK A01 T02531084  RH  010%=      5-min Rain = 0
KCO1 091917Z 32009KT 25/M09 A2986 RMK A01 T02531085  RH  010%=      5-min Rain = 0
KCO1 091918Z 32009KT 25/M09 A2986 RMK A01 T02511087  RH  010%=      5-min Rain = 0
KCO1 091919Z 34008KT 25/M09 A2986 RMK A01 T02491088  RH  010%=      5-min Rain = 0
KCO1 091920Z 31010KT 25/M09 A2985 RMK A01 T02491086  RH  010%=      5-min Rain = 0
KCO1 091921Z 32008KT 25/M08 A2985 RMK A01 T02531083  RH  010%=      5-min Rain = 0
KCO1 091922Z 31008KT 26/M08 A2985 RMK A01 T02551082  RH  010%=      5-min Rain = 0
KCO1 091923Z 30007KT 25/M09 A2985 RMK A01 T02541087  RH  010%=      5-min Rain = 0
KCO1 091924Z 31006KT 25/M09 A2985 RMK A01 T02531089  RH  010%=      5-min Rain = 0
KCO1 091925Z 32008KT 25/M08 A2985 RMK A01 T02541081  RH  010%=      5-min Rain = 0
KCO1 091926Z 29009KT 26/M08 A2985 RMK A01 T02591082  RH  010%=      5-min Rain = 0
KCO1 091927Z 28006KT 26/M09 A2985 RMK A01 T02591085  RH  010%=      5-min Rain = 0
KCO1 091928Z 30009KT 26/M09 A2985 RMK A01 T02581085  RH  010%=      5-min Rain = 0
KCO1 091929Z 30008KT 26/M09 A2985 RMK A01 T02591088  RH  009%=      5-min Rain = 0
KCO1 091930Z 31008KT 26/M09 A2985 RMK A01 T02561089  RH  010%=      5-min Rain = 0
KCO1 091931Z 33010KT 25/M09 A2985 RMK A01 T02531090  RH  010%=      5-min Rain = 0
KCO1 091932Z 31006KT 25/M09 A2985 RMK A01 T02521086  RH  010%=      5-min Rain = 0
KCO1 091933Z 30006KT 25/M09 A2985 RMK A01 T02521086  RH  010%=      5-min Rain = 0
KCO1 091934Z 29007KT 25/M09 A2985 RMK A01 T02521088  RH  010%=      5-min Rain = 0
KCO1 091935Z 27009KT 25/M09 A2985 RMK A01 T02521091  RH  010%=      5-min Rain = 0
KCO1 091936Z 28008KT 25/M09 A2985 RMK A01 T02521090  RH  010%=      5-min Rain = 0
KCO1 091937Z 30009KT 25/M09 A2985 RMK A01 T02511088  RH  010%=      5-min Rain = 0
KCO1 091938Z 31008KT 25/M09 A2985 RMK A01 T02511090  RH  010%=      5-min Rain = 0
KCO1 091939Z 31009KT 25/M09 A2985 RMK A01 T02501091  RH  010%=      5-min Rain = 0
KCO1 091940Z 32008KT 25/M09 A2985 RMK A01 T02511091  RH  010%=      5-min Rain = 0
KCO1 091941Z 31007KT 25/M09 A2985 RMK A01 T02511091  RH  010%=      5-min Rain = 0
KCO1 091942Z 32008KT 25/M09 A2985 RMK A01 T02511091  RH  010%=      5-min Rain = 0
KCO1 091943Z 32010KT 25/M09 A2984 RMK A01 T02531092  RH  009%=      5-min Rain = 0
KCO1 091944Z 31009KT 25/M09 A2984 RMK A01 T02541091  RH  009%=      5-min Rain = 0
KCO1 091945Z 31008KT 26/M09 A2984 RMK A01 T02551091  RH  009%=      5-min Rain = 0
KCO1 091946Z 31008KT 26/M09 A2984 RMK A01 T02561093  RH  009%=      5-min Rain = 0
KCO1 091947Z 31007KT 26/M09 A2984 RMK A01 T02561090  RH  009%=      5-min Rain = 0
KCO1 091948Z 31008KT 26/M09 A2984 RMK A01 T02591087  RH  010%=      5-min Rain = 0
KCO1 091949Z 30010KT 26/M09 A2984 RMK A01 T02591090  RH  009%=      5-min Rain = 0
KCO1 091950Z 30009KT 26/M09 A2984 RMK A01 T02581092  RH  009%=      5-min Rain = 0
KCO1 091951Z 32008KT 26/M09 A2984 RMK A01 T02571090  RH  009%=      5-min Rain = 0
KCO1 091952Z 30009KT 26/M09 A2984 RMK A01 T02561091  RH  009%=      5-min Rain = 0
KCO1 091953Z 30009KT 26/M09 A2984 RMK A01 T02561090  RH  009%=      5-min Rain = 0
KCO1 091954Z 30010KT 26/M09 A2984 RMK A01 T02561090  RH  009%=      5-min Rain = 0
KCO1 091955Z 30008KT 26/M09 A2984 RMK A01 T02551091  RH  009%=      5-min Rain = 0
KCO1 091956Z 30007KT 25/M09 A2984 RMK A01 T02541091  RH  010%=      5-min Rain = 0
KCO1 091957Z 29006KT 25/M09 A2984 RMK A01 T02521091  RH  010%=      5-min Rain = 0
KCO1 091958Z 29007KT 25/M09 A2984 RMK A01 T02521094  RH  009%=      5-min Rain = 0
KCO1 091959Z 30009KT 25/M09 A2984 RMK A01 T02531088  RH  010%=      5-min Rain = 0
KCO1 092000Z 30010KT 26/M09 A2984 RMK A01 T02551090  RH  009%=      5-min Rain = 0
KCO1 092001Z 30009KT 26/M10 A2984 RMK A01 T02561095  RH  009%=      5-min Rain = 0
KCO1 092002Z 30008KT 25/M10 A2984 RMK A01 T02541096  RH  009%=      5-min Rain = 0
KCO1 092003Z 30009KT 25/M10 A2984 RMK A01 T02531098  RH  009%=      5-min Rain = 0
KCO1 092004Z 32008KT 25/M10 A2984 RMK A01 T02531100  RH  009%=      5-min Rain = 0
KCO1 092005Z 31008KT 25/M10 A2984 RMK A01 T02531098  RH  009%=      5-min Rain = 0
KCO1 092006Z 32009KT 26/M09 A2984 RMK A01 T02571091  RH  009%=      5-min Rain = 0
KCO1 092007Z 33009KT 26/M09 A2984 RMK A01 T02591091  RH  009%=      5-min Rain = 0
KCO1 092008Z 33008KT 26/M09 A2984 RMK A01 T02591092  RH  009%=      5-min Rain = 0
KCO1 092009Z 32008KT 26/M09 A2983 RMK A01 T02591091  RH  009%=      5-min Rain = 0
KCO1 092010Z 31009KT 26/M09 A2983 RMK A01 T02601092  RH  009%=      5-min Rain = 0
KCO1 092011Z 31009KT 26/M09 A2983 RMK A01 T02601092  RH  009%=      5-min Rain = 0
KCO1 092012Z 31007KT 26/M09 A2983 RMK A01 T02591093  RH  009%=      5-min Rain = 0
KCO1 092013Z 32007KT 26/M09 A2983 RMK A01 T02591092  RH  009%=      5-min Rain = 0
KCO1 092014Z 33008KT 26/M09 A2983 RMK A01 T02581091  RH  009%=      5-min Rain = 0
KCO1 092015Z 31007KT 26/M09 A2983 RMK A01 T02571090  RH  009%=      5-min Rain = 0
KCO1 092016Z 29005KT 26/M09 A2983 RMK A01 T02571090  RH  009%=      5-min Rain = 0
KCO1 092017Z 30009KT 26/M09 A2983 RMK A01 T02581091  RH  009%=      5-min Rain = 0
KCO1 092018Z 29007KT 26/M09 A2983 RMK A01 T02591091  RH  009%=      5-min Rain = 0
KCO1 092019Z 29005KT 26/M09 A2983 RMK A01 T02591094  RH  009%=      5-min Rain = 0
KCO1 092020Z 29006KT 26/M09 A2983 RMK A01 T02591094  RH  009%=      5-min Rain = 0
KCO1 092021Z 28007KT 26/M09 A2983 RMK A01 T02591091  RH  009%=      5-min Rain = 0
KCO1 092022Z 28009KT 26/M09 A2983 RMK A01 T02621091  RH  009%=      5-min Rain = 0
KCO1 092023Z 28008KT 26/M09 A2983 RMK A01 T02621094  RH  009%=      5-min Rain = 0
KCO1 092024Z 27007KT 26/M09 A2983 RMK A01 T02621093  RH  009%=      5-min Rain = 0
KCO1 092025Z 28006KT 26/M09 A2983 RMK A01 T02631093  RH  009%=      5-min Rain = 0
KCO1 092026Z 32006KT 26/M09 A2983 RMK A01 T02631091  RH  009%=      5-min Rain = 0
KCO1 092027Z 29009KT 27/M09 A2983 RMK A01 T02651090  RH  009%=      5-min Rain = 0
KCO1 092028Z 30008KT 27/M09 A2983 RMK A01 T02651092  RH  009%=      5-min Rain = 0
KCO1 092029Z 30007KT 26/M09 A2983 RMK A01 T02641094  RH  009%=      5-min Rain = 0
KCO1 092030Z 29006KT 26/M09 A2983 RMK A01 T02631092  RH  009%=      5-min Rain = 0
KCO1 092031Z 28006KT 26/M09 A2983 RMK A01 T02631093  RH  009%=      5-min Rain = 0
KCO1 092032Z 27004KT 26/M09 A2983 RMK A01 T02631093  RH  009%=      5-min Rain = 0
KCO1 092033Z 31009KT 26/M09 A2983 RMK A01 T02641092  RH  009%=      5-min Rain = 0
KCO1 092034Z 30010KT 27/M09 A2983 RMK A01 T02661090  RH  009%=      5-min Rain = 0
KCO1 092035Z 30008KT 27/M09 A2983 RMK A01 T02661094  RH  009%=      5-min Rain = 0
KCO1 092036Z 30007KT 26/M09 A2983 RMK A01 T02641093  RH  009%=      5-min Rain = 0
KCO1 092037Z 30007KT 26/M09 A2982 RMK A01 T02631093  RH  009%=      5-min Rain = 0
KCO1 092038Z 32005KT 26/M09 A2982 RMK A01 T02631093  RH  009%=      5-min Rain = 0
KCO1 092039Z 31005KT 26/M09 A2982 RMK A01 T02621091  RH  009%=      5-min Rain = 0
KCO1 092040Z 30008KT 26/M09 A2982 RMK A01 T02641091  RH  009%=      5-min Rain = 0
KCO1 092041Z 29009KT 27/M09 A2982 RMK A01 T02661090  RH  009%=      5-min Rain = 0
KCO1 092042Z 28007KT 27/M09 A2982 RMK A01 T02671090  RH  009%=      5-min Rain = 0
KCO1 092043Z 32008KT 27/M09 A2982 RMK A01 T02721086  RH  009%=      5-min Rain = 0
KCO1 092044Z 31009KT 28/M09 A2982 RMK A01 T02751089  RH  009%=      5-min Rain = 0
KCO1 092045Z 30008KT 27/M09 A2982 RMK A01 T02741091  RH  008%=      5-min Rain = 0
KCO1 092046Z 28007KT 27/M09 A2982 RMK A01 T02721091  RH  009%=      5-min Rain = 0
KCO1 092047Z 28006KT 27/M09 A2982 RMK A01 T02721090  RH  009%=      5-min Rain = 0
KCO1 092048Z 31009KT 27/M09 A2982 RMK A01 T02711090  RH  009%=      5-min Rain = 0
KCO1 092049Z 32009KT 27/M09 A2982 RMK A01 T02711091  RH  009%=      5-min Rain = 0
KCO1 092050Z 32009KT 27/M09 A2982 RMK A01 T02711092  RH  009%=      5-min Rain = 0
KCO1 092051Z 30010KT 27/M09 A2982 RMK A01 T02711090  RH  009%=      5-min Rain = 0
KCO1 092052Z 29009KT 27/M09 A2982 RMK A01 T02711088  RH  009%=      5-min Rain = 0
KCO1 092053Z 29007KT 27/M09 A2982 RMK A01 T02711092  RH  009%=      5-min Rain = 0
KCO1 092054Z 31004KT 27/M09 A2982 RMK A01 T02701093  RH  009%=      5-min Rain = 0
KCO1 092055Z 29008KT 27/M09 A2982 RMK A01 T02671094  RH  009%=      5-min Rain = 0
KCO1 092056Z 28010KT 27/M09 A2982 RMK A01 T02681093  RH  009%=      5-min Rain = 0
KCO1 092057Z 27008KT 27/M10 A2982 RMK A01 T02681097  RH  008%=      5-min Rain = 0
KCO1 092058Z 28007KT 27/M10 A2982 RMK A01 T02671095  RH  009%=      5-min Rain = 0
KCO1 092059Z 28008KT 27/M09 A2982 RMK A01 T02681092  RH  009%=      5-min Rain = 0
KCO1 092100Z 29010KT 27/M09 A2982 RMK A01 T02681094  RH  009%=      5-min Rain = 0
KCO1 092101Z 30008KT 27/M10 A2982 RMK A01 T02651098  RH  008%=      5-min Rain = 0
KCO1 092102Z 30008KT 26/M10 A2982 RMK A01 T02641097  RH  008%=      5-min Rain = 0
KCO1 092103Z 30008KT 27/M10 A2982 RMK A01 T02651096  RH  009%=      5-min Rain = 0
KCO1 092104Z 31004KT 27/M09 A2982 RMK A01 T02651093  RH  009%=      5-min Rain = 0
KCO1 092105Z 29005KT 27/M09 A2981 RMK A01 T02651093  RH  009%=      5-min Rain = 0
KCO1 092106Z 30005KT 27/M10 A2981 RMK A01 T02651095  RH  009%=      5-min Rain = 0
KCO1 092107Z 28008KT 26/M09 A2981 RMK A01 T02641093  RH  009%=      5-min Rain = 0
KCO1 092108Z 29007KT 26/M10 A2981 RMK A01 T02641096  RH  009%=      5-min Rain = 0
KCO1 092109Z 29006KT 27/M10 A2981 RMK A01 T02651095  RH  009%=      5-min Rain = 0
KCO1 092110Z 30006KT 27/M09 A2981 RMK A01 T02661094  RH  009%=      5-min Rain = 0
KCO1 092111Z 30007KT 27/M09 A2981 RMK A01 T02671094  RH  009%=      5-min Rain = 0
KCO1 092112Z 29008KT 27/M09 A2981 RMK A01 T02681092  RH  009%=      5-min Rain = 0
KCO1 092113Z 28008KT 27/M09 A2981 RMK A01 T02691094  RH  009%=      5-min Rain = 0
KCO1 092114Z 27007KT 27/M09 A2981 RMK A01 T02681094  RH  009%=      5-min Rain = 0
KCO1 092115Z 29007KT 27/M10 A2981 RMK A01 T02681095  RH  008%=      5-min Rain = 0
KCO1 092116Z 28005KT 27/M09 A2981 RMK A01 T02681094  RH  009%=      5-min Rain = 0
KCO1 092117Z 26006KT 27/M09 A2981 RMK A01 T02711091  RH  009%=      5-min Rain = 0
KCO1 092118Z 25005KT 27/M09 A2981 RMK A01 T02731094  RH  008%=      5-min Rain = 0
KCO1 092119Z 28004KT 28/M09 A2981 RMK A01 T02761092  RH  008%=      5-min Rain = 0
KCO1 092120Z 30006KT 28/M09 A2981 RMK A01 T02771093  RH  008%=      5-min Rain = 0
KCO1 092121Z 28008KT 28/M09 A2981 RMK A01 T02771091  RH  008%=      5-min Rain = 0
KCO1 092122Z 28007KT 28/M09 A2981 RMK A01 T02771092  RH  008%=      5-min Rain = 0
KCO1 092123Z 26010KT 28/M09 A2981 RMK A01 T02761094  RH  008%=      5-min Rain = 0
KCO1 092124Z 26009KT 28/M10 A2981 RMK A01 T02751097  RH  008%=      5-min Rain = 0
KCO1 092125Z 27010KT 27/M10 A298 RMK A01 T02741097  RH  008%=      5-min Rain = 0
KCO1 092126Z 29009KT 28/M09 A298 RMK A01 T02761093  RH  008%=      5-min Rain = 0
KCO1 092127Z 26008KT 28/M09 A298 RMK A01 T02771092  RH  008%=      5-min Rain = 0
KCO1 092128Z 26009KT 28/M09 A298 RMK A01 T02761094  RH  008%=      5-min Rain = 0
KCO1 092129Z 26008KT 27/M10 A298 RMK A01 T02731097  RH  008%=      5-min Rain = 0
KCO1 092130Z 25008KT 27/M10 A298 RMK A01 T02721097  RH  008%=      5-min Rain = 0
KCO1 092131Z 26006KT 27/M10 A298 RMK A01 T02701097  RH  008%=      5-min Rain = 0
KCO1 092132Z 24007KT 27/M10 A298 RMK A01 T02701096  RH  008%=      5-min Rain = 0
KCO1 092133Z 24007KT 27/M10 A298 RMK A01 T02691097  RH  008%=      5-min Rain = 0
KCO1 092134Z 25005KT 27/M10 A298 RMK A01 T02691096  RH  008%=      5-min Rain = 0
KCO1 092135Z 28008KT 27/M09 A298 RMK A01 T02701094  RH  008%=      5-min Rain = 0
KCO1 092136Z 28007KT 27/M10 A298 RMK A01 T02691095  RH  008%=      5-min Rain = 0
KCO1 092137Z 29006KT 27/M09 A298 RMK A01 T02691094  RH  008%=      5-min Rain = 0
KCO1 092138Z 28007KT 27/M09 A298 RMK A01 T02701093  RH  008%=      5-min Rain = 0
KCO1 092139Z 27007KT 27/M09 A298 RMK A01 T02691093  RH  009%=      5-min Rain = 0
KCO1 092140Z 27007KT 27/M09 A298 RMK A01 T02701094  RH  008%=      5-min Rain = 0
KCO1 092141Z 28007KT 27/M09 A298 RMK A01 T02711093  RH  008%=      5-min Rain = 0
KCO1 092142Z 27006KT 27/M09 A298 RMK A01 T02731092  RH  008%=      5-min Rain = 0
KCO1 092143Z 26006KT 28/M09 A298 RMK A01 T02751090  RH  008%=      5-min Rain = 0
KCO1 092144Z 24009KT 28/M09 A298 RMK A01 T02781089  RH  008%=      5-min Rain = 0
KCO1 092145Z 25006KT 28/M09 A298 RMK A01 T02801092  RH  008%=      5-min Rain = 0
KCO1 092146Z 24005KT 28/M09 A2979 RMK A01 T02801091  RH  008%=      5-min Rain = 0
KCO1 092147Z 24006KT 28/M09 A2979 RMK A01 T02801091  RH  008%=      5-min Rain = 0
KCO1 092148Z 24005KT 28/M09 A2979 RMK A01 T02791094  RH  008%=      5-min Rain = 0
KCO1 092149Z 25005KT 28/M10 A2979 RMK A01 T02761095  RH  008%=      5-min Rain = 0
KCO1 092150Z 27006KT 28/M09 A2979 RMK A01 T02761092  RH  008%=      5-min Rain = 0
KCO1 092151Z 28009KT 28/M09 A2979 RMK A01 T02781091  RH  008%=      5-min Rain = 0
KCO1 092152Z 27005KT 28/M09 A2979 RMK A01 T02801092  RH  008%=      5-min Rain = 0
KCO1 092153Z 29007KT 28/M09 A2979 RMK A01 T02821088  RH  008%=      5-min Rain = 0
KCO1 092154Z 28009KT 28/M09 A2979 RMK A01 T02831092  RH  008%=      5-min Rain = 0
KCO1 092155Z 27008KT 28/M09 A2979 RMK A01 T02821093  RH  008%=      5-min Rain = 0
KCO1 092156Z 26004KT 28/M09 A2979 RMK A01 T02801093  RH  008%=      5-min Rain = 0
KCO1 092157Z 24006KT 28/M09 A2979 RMK A01 T02791092  RH  008%=      5-min Rain = 0
KCO1 092158Z 25006KT 28/M09 A2979 RMK A01 T02811093  RH  008%=      5-min Rain = 0
KCO1 092159Z 24005KT 28/M10 A2979 RMK A01 T02811095  RH  008%=      5-min Rain = 0
KCO1 092200Z 22003KT 28/M09 A2979 RMK A01 T02801094  RH  008%=      5-min Rain = 0
KCO1 092201Z 21000KT 28/M10 A2979 RMK A01 T02801097  RH  008%=      5-min Rain = 0
KCO1 092202Z 19003KT 28/M09 A2979 RMK A01 T02811094  RH  008%=      5-min Rain = 0
KCO1 092203Z 21006KT 29/M09 A2978 RMK A01 T02851090  RH  008%=      5-min Rain = 0
KCO1 092204Z 19006KT 29/M09 A2978 RMK A01 T02861091  RH  008%=      5-min Rain = 0
KCO1 092205Z 15005KT 29/M09 A2978 RMK A01 T02871092  RH  008%=      5-min Rain = 0
KCO1 092206Z 16005KT 28/M10 A2978 RMK A01 T02841095  RH  008%=      5-min Rain = 0
KCO1 092207Z 18005KT 28/M09 A2978 RMK A01 T02821094  RH  008%=      5-min Rain = 0
KCO1 092208Z 18006KT 28/M09 A2978 RMK A01 T02801093  RH  008%=      5-min Rain = 0
KCO1 092209Z 17004KT 28/M10 A2978 RMK A01 T02771095  RH  008%=      5-min Rain = 0
KCO1 092210Z 19005KT 28/M09 A2978 RMK A01 T02761093  RH  008%=      5-min Rain = 0
KCO1 092211Z 17006KT 28/M09 A2978 RMK A01 T02761093  RH  008%=      5-min Rain = 0
KCO1 092212Z 22004KT 28/M09 A2978 RMK A01 T02761094  RH  008%=      5-min Rain = 0
KCO1 092213Z 25006KT 28/M09 A2978 RMK A01 T02751093  RH  008%=      5-min Rain = 0
KCO1 092214Z 26004KT 28/M09 A2978 RMK A01 T02751093  RH  008%=      5-min Rain = 0
KCO1 092215Z 27004KT 28/M09 A2978 RMK A01 T02751092  RH  008%=      5-min Rain = 0
KCO1 092216Z 26003KT 28/M09 A2978 RMK A01 T02751093  RH  008%=      5-min Rain = 0
KCO1 092217Z 26007KT 28/M09 A2978 RMK A01 T02751094  RH  008%=      5-min Rain = 0
KCO1 092218Z 24009KT 27/M09 A2978 RMK A01 T02741094  RH  008%=      5-min Rain = 0
KCO1 092219Z 26006KT 27/M09 A2978 RMK A01 T02741094  RH  008%=      5-min Rain = 0
KCO1 092220Z 29008KT 27/M09 A2978 RMK A01 T02731093  RH  008%=      5-min Rain = 0
KCO1 092221Z 24012G17KT 27/M09 A2978 RMK A01 T02731094  RH  008%=      5-min Rain = 0
KCO1 092222Z 23006KT 27/M10 A2978 RMK A01 T02721095  RH  008%=      5-min Rain = 0
KCO1 092223Z 26004KT 27/M10 A2978 RMK A01 T02711095  RH  008%=      5-min Rain = 0
KCO1 092224Z 25005KT 27/M09 A2978 RMK A01 T02721094  RH  008%=      5-min Rain = 0
KCO1 092225Z 24006KT 27/M09 A2978 RMK A01 T02741092  RH  008%=      5-min Rain = 0
KCO1 092226Z 26005KT 28/M09 A2978 RMK A01 T02771093  RH  008%=      5-min Rain = 0
KCO1 092227Z 27005KT 28/M09 A2978 RMK A01 T02781094  RH  008%=      5-min Rain = 0
KCO1 092228Z 27004KT 28/M09 A2978 RMK A01 T02801092  RH  008%=      5-min Rain = 0
KCO1 092229Z 27004KT 28/M09 A2978 RMK A01 T02811091  RH  008%=      5-min Rain = 0
KCO1 092230Z 29004KT 28/M09 A2978 RMK A01 T02821091  RH  008%=      5-min Rain = 0
KCO1 092231Z 26005KT 28/M09 A2978 RMK A01 T02831091  RH  008%=      5-min Rain = 0
KCO1 092232Z 25006KT 28/M09 A2978 RMK A01 T02841090  RH  008%=      5-min Rain = 0
KCO1 092233Z 25006KT 29/M09 A2977 RMK A01 T02851088  RH  008%=      5-min Rain = 0
KCO1 092234Z 24007KT 29/M09 A2978 RMK A01 T02871089  RH  008%=      5-min Rain = 0
KCO1 092235Z 25006KT 29/M09 A2978 RMK A01 T02861090  RH  008%=      5-min Rain = 0
KCO1 092236Z 26004KT 28/M09 A2977 RMK A01 T02841093  RH  008%=      5-min Rain = 0
KCO1 092237Z 27003KT 28/M09 A2977 RMK A01 T02831091  RH  008%=      5-min Rain = 0
KCO1 092238Z 22005KT 28/M09 A2977 RMK A01 T02841088  RH  008%=      5-min Rain = 0
KCO1 092239Z 22005KT 29/M09 A2977 RMK A01 T02871088  RH  008%=      5-min Rain = 0
KCO1 092240Z 16003KT 29/M09 A2977 RMK A01 T02881091  RH  008%=      5-min Rain = 0
KCO1 092241Z 06004KT 29/M09 A2977 RMK A01 T02881091  RH  008%=      5-min Rain = 0
KCO1 092242Z 35009KT 29/M09 A2977 RMK A01 T02861092  RH  008%=      5-min Rain = 0
KCO1 092243Z 35008KT 28/M09 A2978 RMK A01 T02841093  RH  008%=      5-min Rain = 0
KCO1 092244Z 36007KT 28/M10 A2978 RMK A01 T02801097  RH  008%=      5-min Rain = 0
KCO1 092245Z 36004KT 28/M10 A2978 RMK A01 T02781097  RH  008%=      5-min Rain = 0
KCO1 092246Z 31006KT 28/M09 A2977 RMK A01 T02771094  RH  008%=      5-min Rain = 0
KCO1 092247Z 32006KT 28/M10 A2977 RMK A01 T02771095  RH  008%=      5-min Rain = 0
KCO1 092248Z 32006KT 28/M09 A2977 RMK A01 T02761094  RH  008%=      5-min Rain = 0
KCO1 092249Z 33003KT 28/M09 A2977 RMK A01 T02761094  RH  008%=      5-min Rain = 0
KCO1 092250Z 34006KT 28/M10 A2977 RMK A01 T02761095  RH  008%=      5-min Rain = 0
KCO1 092251Z 32008KT 28/M10 A2977 RMK A01 T02751095  RH  008%=      5-min Rain = 0
KCO1 092252Z 32008KT 27/M10 A2977 RMK A01 T02731096  RH  008%=      5-min Rain = 0
KCO1 092253Z 33008KT 27/M10 A2978 RMK A01 T02731096  RH  008%=      5-min Rain = 0
KCO1 092254Z 33010KT 27/M10 A2978 RMK A01 T02731095  RH  008%=      5-min Rain = 0
KCO1 092255Z 33009KT 27/M10 A2978 RMK A01 T02711097  RH  008%=      5-min Rain = 0
KCO1 092256Z 34008KT 27/M10 A2978 RMK A01 T02701095  RH  008%=      5-min Rain = 0
KCO1 092257Z 33009KT 27/M10 A2978 RMK A01 T02711095  RH  008%=      5-min Rain = 0
KCO1 092258Z 34011KT 27/M10 A2978 RMK A01 T02711096  RH  008%=      5-min Rain = 0
KCO1 092259Z 34010KT 27/M10 A2978 RMK A01 T02701098  RH  008%=      5-min Rain = 0
KCO1 092300Z 34010KT 27/M10 A2978 RMK A01 T02691097  RH  008%=      5-min Rain = 0
KCO1 092301Z 35010KT 27/M10 A2978 RMK A01 T02671099  RH  008%=      5-min Rain = 0
KCO1 092302Z 35010KT 27/M10 A2978 RMK A01 T02661098  RH  008%=      5-min Rain = 0
KCO1 092303Z 35009KT 27/M10 A2978 RMK A01 T02661098  RH  008%=      5-min Rain = 0
KCO1 092304Z 34008KT 27/M10 A2978 RMK A01 T02661098  RH  008%=      5-min Rain = 0
KCO1 092305Z 34009KT 27/M10 A2978 RMK A01 T02661097  RH  008%=      5-min Rain = 0
KCO1 092306Z 34010KT 27/M10 A2978 RMK A01 T02661098  RH  008%=      5-min Rain = 0
KCO1 092307Z 34009KT 27/M10 A2978 RMK A01 T02661099  RH  008%=      5-min Rain = 0
KCO1 092308Z 33008KT 27/M10 A2978 RMK A01 T02661097  RH  008%=      5-min Rain = 0
KCO1 092309Z 34009KT 27/M10 A2978 RMK A01 T02661098  RH  008%=      5-min Rain = 0
KCO1 092310Z 34008KT 27/M10 A2978 RMK A01 T02651098  RH  008%=      5-min Rain = 0
KCO1 092311Z 34008KT 27/M10 A2978 RMK A01 T02651099  RH  008%=      5-min Rain = 0
KCO1 092312Z 35009KT 26/M10 A2978 RMK A01 T02641097  RH  008%=      5-min Rain = 0
KCO1 092313Z 35008KT 26/M10 A2978 RMK A01 T02641097  RH  008%=      5-min Rain = 0
KCO1 092314Z 35007KT 27/M10 A2978 RMK A01 T02651098  RH  008%=      5-min Rain = 0
KCO1 092315Z 35007KT 26/M10 A2978 RMK A01 T02641096  RH  009%=      5-min Rain = 0
KCO1 092316Z 35007KT 26/M10 A2978 RMK A01 T02641097  RH  009%=      5-min Rain = 0
KCO1 092317Z 34008KT 26/M10 A2978 RMK A01 T02641097  RH  008%=      5-min Rain = 0
KCO1 092318Z 34008KT 27/M10 A2978 RMK A01 T02651098  RH  008%=      5-min Rain = 0
KCO1 092319Z 34007KT 26/M10 A2978 RMK A01 T02641098  RH  008%=      5-min Rain = 0
KCO1 092320Z 00008KT 26/M10 A2978 RMK A01 T02631098  RH  009%=      5-min Rain = 0
KCO1 092321Z 35008KT 26/M10 A2978 RMK A01 T02631099  RH  008%=      5-min Rain = 0
KCO1 092322Z 36007KT 26/M10 A2978 RMK A01 T02631099  RH  008%=      5-min Rain = 0
KCO1 092323Z 00008KT 26/M10 A2978 RMK A01 T02621098  RH  009%=      5-min Rain = 0
KCO1 092324Z 00006KT 26/M10 A2978 RMK A01 T02631098  RH  009%=      5-min Rain = 0
KCO1 092325Z 36006KT 26/M10 A2978 RMK A01 T02631097  RH  009%=      5-min Rain = 0
KCO1 092326Z 35008KT 26/M10 A2978 RMK A01 T02621098  RH  009%=      5-min Rain = 0
KCO1 092327Z 35007KT 26/M10 A2978 RMK A01 T02621098  RH  009%=      5-min Rain = 0
KCO1 092328Z 35009KT 26/M10 A2978 RMK A01 T02611099  RH  009%=      5-min Rain = 0
KCO1 092329Z 35008KT 26/M10 A2978 RMK A01 T02611099  RH  009%=      5-min Rain = 0
KCO1 092330Z 35009KT 26/M10 A2978 RMK A01 T02601098  RH  009%=      5-min Rain = 0
KCO1 092331Z 01009KT 26/M10 A2978 RMK A01 T02601099  RH  009%=      5-min Rain = 0
KCO1 092332Z 36009KT 26/M10 A2978 RMK A01 T02601099  RH  009%=      5-min Rain = 0
KCO1 092333Z 00008KT 26/M10 A2978 RMK A01 T02591100  RH  009%=      5-min Rain = 0
KCO1 092334Z 00007KT 26/M10 A2978 RMK A01 T02591099  RH  009%=      5-min Rain = 0
KCO1 092335Z 36008KT 26/M10 A2978 RMK A01 T02591099  RH  009%=      5-min Rain = 0
KCO1 092336Z 35007KT 26/M10 A2978 RMK A01 T02591099  RH  009%=      5-min Rain = 0
KCO1 092337Z 36007KT 26/M10 A2978 RMK A01 T02591099  RH  009%=      5-min Rain = 0
KCO1 092338Z 36009KT 26/M10 A2978 RMK A01 T02591098  RH  009%=      5-min Rain = 0
KCO1 092339Z 36007KT 26/M10 A2978 RMK A01 T02591098  RH  009%=      5-min Rain = 0
KCO1 092340Z 36008KT 26/M10 A2978 RMK A01 T02581099  RH  009%=      5-min Rain = 0
KCO1 092341Z 00008KT 26/M10 A2978 RMK A01 T02581098  RH  009%=      5-min Rain = 0
KCO1 092342Z 00007KT 26/M10 A2978 RMK A01 T02581099  RH  009%=      5-min Rain = 0
KCO1 092343Z 00008KT 26/M10 A2978 RMK A01 T02571099  RH  009%=      5-min Rain = 0
KCO1 092344Z 01008KT 26/M10 A2978 RMK A01 T02571099  RH  009%=      5-min Rain = 0
KCO1 092345Z 01007KT 26/M10 A2978 RMK A01 T02571099  RH  009%=      5-min Rain = 0
KCO1 092346Z 01007KT 26/M10 A2978 RMK A01 T02571098  RH  009%=      5-min Rain = 0
KCO1 092347Z 36007KT 26/M10 A2978 RMK A01 T02561098  RH  009%=      5-min Rain = 0
KCO1 092348Z 36007KT 26/M10 A2978 RMK A01 T02561099  RH  009%=      5-min Rain = 0
KCO1 092349Z 01005KT 26/M10 A2978 RMK A01 T02571098  RH  009%=      5-min Rain = 0
KCO1 092350Z 01007KT 26/M10 A2978 RMK A01 T02561097  RH  009%=      5-min Rain = 0
KCO1 092351Z 01006KT 26/M10 A2978 RMK A01 T02561098  RH  009%=      5-min Rain = 0
KCO1 092352Z 01006KT 26/M10 A2978 RMK A01 T02561098  RH  009%=      5-min Rain = 0
KCO1 092353Z 01006KT 26/M10 A2978 RMK A01 T02551098  RH  009%=      5-min Rain = 0
KCO1 092354Z 02006KT 26/M10 A2978 RMK A01 T02551098  RH  009%=      5-min Rain = 0
KCO1 092355Z 01006KT 26/M10 A2978 RMK A01 T02551098  RH  009%=      5-min Rain = 0
KCO1 092356Z 02006KT 26/M10 A2978 RMK A01 T02551098  RH  009%=      5-min Rain = 0
KCO1 092357Z 03004KT 26/M10 A2978 RMK A01 T02551098  RH  009%=      5-min Rain = 0
KCO1 092358Z 03006KT 26/M10 A2978 RMK A01 T02551096  RH  009%=      5-min Rain = 0
KCO1 092359Z 03005KT 25/M10 A2978 RMK A01 T02541096  RH  009%=      5-min Rain = 0
KCO1 100000Z 03005KT 25/M10 A2978 RMK A01 T02541096  RH  009%=      5-min Rain = 0
KCO1 100001Z 04004KT 25/M10 A2978 RMK A01 T02541095  RH  009%=      5-min Rain = 0
KCO1 100002Z 03006KT 25/M09 A2978 RMK A01 T02531093  RH  009%=      5-min Rain = 0
KCO1 100003Z 04005KT 25/M09 A2978 RMK A01 T02531091  RH  010%=      5-min Rain = 0
KCO1 100004Z 04005KT 25/M09 A2978 RMK A01 T02521090  RH  010%=      5-min Rain = 0
KCO1 100005Z 03005KT 25/M09 A2978 RMK A01 T02521088  RH  010%=      5-min Rain = 0
KCO1 100006Z 03005KT 25/M09 A2978 RMK A01 T02511088  RH  010%=      5-min Rain = 0
KCO1 100007Z 03004KT 25/M09 A2978 RMK A01 T02511087  RH  010%=      5-min Rain = 0
KCO1 100008Z 03004KT 25/M09 A2978 RMK A01 T02521086  RH  010%=      5-min Rain = 0
KCO1 100009Z 04004KT 25/M09 A2978 RMK A01 T02531085  RH  010%=      5-min Rain = 0
KCO1 100010Z 04005KT 25/M09 A2978 RMK A01 T02541086  RH  010%=      5-min Rain = 0
KCO1 100011Z 04005KT 26/M09 A2978 RMK A01 T02551089  RH  010%=      5-min Rain = 0
KCO1 100012Z 04005KT 26/M09 A2978 RMK A01 T02551091  RH  009%=      5-min Rain = 0
KCO1 100013Z 04005KT 26/M09 A2978 RMK A01 T02561090  RH  009%=      5-min Rain = 0
KCO1 100014Z 05004KT 26/M09 A2978 RMK A01 T02561091  RH  009%=      5-min Rain = 0
KCO1 100015Z 05005KT 26/M09 A2978 RMK A01 T02571091  RH  009%=      5-min Rain = 0
KCO1 100016Z 05006KT 26/M09 A2978 RMK A01 T02561091  RH  009%=      5-min Rain = 0
KCO1 100017Z 05005KT 26/M09 A2978 RMK A01 T02551091  RH  009%=      5-min Rain = 0
KCO1 100018Z 04004KT 25/M09 A2978 RMK A01 T02541091  RH  010%=      5-min Rain = 0
KCO1 100019Z 04004KT 25/M09 A2978 RMK A01 T02531090  RH  010%=      5-min Rain = 0
KCO1 100020Z 04004KT 25/M09 A2978 RMK A01 T02531090  RH  010%=      5-min Rain = 0
KCO1 100021Z 04004KT 25/M09 A2978 RMK A01 T02521090  RH  010%=      5-min Rain = 0
KCO1 100022Z 05004KT 25/M09 A2978 RMK A01 T02511090  RH  010%=      5-min Rain = 0
KCO1 100023Z 05003KT 25/M09 A2978 RMK A01 T02511089  RH  010%=      5-min Rain = 0
KCO1 100024Z 05003KT 25/M09 A2978 RMK A01 T02511089  RH  010%=      5-min Rain = 0
KCO1 100025Z 05003KT 25/M09 A2978 RMK A01 T02511089  RH  010%=      5-min Rain = 0
KCO1 100026Z 05003KT 25/M09 A2978 RMK A01 T02501090  RH  010%=      5-min Rain = 0
KCO1 100027Z 05004KT 25/M09 A2978 RMK A01 T02501090  RH  010%=      5-min Rain = 0
KCO1 100028Z 05003KT 25/M09 A2978 RMK A01 T02491090  RH  010%=      5-min Rain = 0
KCO1 100029Z 05003KT 25/M09 A2978 RMK A01 T02491090  RH  010%=      5-min Rain = 0
KCO1 100030Z 05003KT 25/M09 A2978 RMK A01 T02481090  RH  010%=      5-min Rain = 0
KCO1 100031Z 05003KT 25/M09 A2978 RMK A01 T02481089  RH  010%=      5-min Rain = 0
KCO1 100032Z 05003KT 25/M09 A2978 RMK A01 T02471088  RH  010%=      5-min Rain = 0
KCO1 100033Z 06004KT 25/M09 A2978 RMK A01 T02461088  RH  010%=      5-min Rain = 0
KCO1 100034Z 06004KT 25/M09 A2978 RMK A01 T02451088  RH  010%=      5-min Rain = 0
KCO1 100035Z 06004KT 25/M09 A2978 RMK A01 T02451087  RH  010%=      5-min Rain = 0
KCO1 100036Z 06004KT 24/M09 A2978 RMK A01 T02441086  RH  010%=      5-min Rain = 0
KCO1 100037Z 07004KT 24/M09 A2978 RMK A01 T02431085  RH  011%=      5-min Rain = 0
KCO1 100038Z 07004KT 24/M09 A2978 RMK A01 T02421085  RH  011%=      5-min Rain = 0
KCO1 100039Z 08004KT 24/M08 A2978 RMK A01 T02411084  RH  011%=      5-min Rain = 0
KCO1 100040Z 08004KT 24/M08 A2978 RMK A01 T02411084  RH  011%=      5-min Rain = 0
KCO1 100041Z 08004KT 24/M08 A2978 RMK A01 T02401084  RH  011%=      5-min Rain = 0
KCO1 100042Z 08004KT 24/M08 A2978 RMK A01 T02401084  RH  011%=      5-min Rain = 0
KCO1 100043Z 08004KT 24/M08 A2978 RMK A01 T02391084  RH  011%=      5-min Rain = 0
KCO1 100044Z 08004KT 24/M08 A2978 RMK A01 T02391084  RH  011%=      5-min Rain = 0
KCO1 100045Z 08004KT 24/M08 A2978 RMK A01 T02381083  RH  011%=      5-min Rain = 0
KCO1 100046Z 08004KT 24/M08 A2978 RMK A01 T02381083  RH  011%=      5-min Rain = 0
KCO1 100047Z 07004KT 24/M08 A2978 RMK A01 T02371082  RH  011%=      5-min Rain = 0
KCO1 100048Z 07004KT 24/M08 A2978 RMK A01 T02371082  RH  011%=      5-min Rain = 0
KCO1 100049Z 07004KT 24/M08 A2978 RMK A01 T02361081  RH  011%=      5-min Rain = 0
KCO1 100050Z 07004KT 24/M08 A2978 RMK A01 T02361081  RH  011%=      5-min Rain = 0
KCO1 100051Z 07004KT 24/M08 A2978 RMK A01 T02351081  RH  011%=      5-min Rain = 0
KCO1 100052Z 07003KT 23/M08 A2978 RMK A01 T02341081  RH  012%=      5-min Rain = 0
KCO1 100053Z 07004KT 23/M08 A2978 RMK A01 T02331082  RH  012%=      5-min Rain = 0
KCO1 100054Z 07004KT 23/M08 A2978 RMK A01 T02331082  RH  012%=      5-min Rain = 0
KCO1 100055Z 07004KT 23/M08 A2978 RMK A01 T02331081  RH  012%=      5-min Rain = 0
KCO1 100056Z 07004KT 23/M08 A2979 RMK A01 T02331081  RH  012%=      5-min Rain = 0
KCO1 100057Z 07004KT 23/M08 A2979 RMK A01 T02321082  RH  012%=      5-min Rain = 0
KCO1 100058Z 07005KT 23/M08 A2979 RMK A01 T02311082  RH  012%=      5-min Rain = 0
KCO1 100059Z 07004KT 23/M08 A2979 RMK A01 T02311083  RH  012%=      5-min Rain = 0
KCO1 100100Z 07004KT 23/M08 A2979 RMK A01 T02311083  RH  012%=      5-min Rain = 0
KCO1 100101Z 07005KT 23/M08 A2979 RMK A01 T02301084  RH  012%=      5-min Rain = 0
KCO1 100102Z 07005KT 23/M08 A2979 RMK A01 T02301083  RH  012%=      5-min Rain = 0
KCO1 100103Z 06004KT 23/M08 A2979 RMK A01 T02291084  RH  012%=      5-min Rain = 0
KCO1 100104Z 06004KT 23/M09 A2979 RMK A01 T02291085  RH  012%=      5-min Rain = 0
KCO1 100105Z 06004KT 23/M09 A2979 RMK A01 T02291085  RH  012%=      5-min Rain = 0
KCO1 100106Z 06004KT 23/M08 A2979 RMK A01 T02291084  RH  012%=      5-min Rain = 0
KCO1 100107Z 06004KT 23/M09 A2979 RMK A01 T02281085  RH  012%=      5-min Rain = 0
KCO1 100108Z 06004KT 23/M08 A2979 RMK A01 T02271084  RH  012%=      5-min Rain = 0
KCO1 100109Z 06004KT 23/M09 A2979 RMK A01 T02271085  RH  012%=      5-min Rain = 0
KCO1 100110Z 05004KT 23/M09 A2979 RMK A01 T02271085  RH  012%=      5-min Rain = 0
KCO1 100111Z 05003KT 23/M09 A2979 RMK A01 T02271085  RH  012%=      5-min Rain = 0
KCO1 100112Z 05003KT 23/M09 A2979 RMK A01 T02261085  RH  012%=      5-min Rain = 0
KCO1 100113Z 05003KT 23/M09 A2979 RMK A01 T02261085  RH  012%=      5-min Rain = 0
KCO1 100114Z 05003KT 23/M09 A2979 RMK A01 T02251085  RH  012%=      5-min Rain = 0
KCO1 100115Z 04003KT 23/M09 A2979 RMK A01 T02251085  RH  012%=      5-min Rain = 0
KCO1 100116Z 04003KT 22/M09 A2979 RMK A01 T02241085  RH  012%=      5-min Rain = 0
KCO1 100117Z 04003KT 22/M09 A2979 RMK A01 T02231086  RH  012%=      5-min Rain = 0
KCO1 100118Z 04003KT 22/M09 A2979 RMK A01 T02231085  RH  012%=      5-min Rain = 0
KCO1 100119Z 04003KT 22/M08 A2979 RMK A01 T02231083  RH  012%=      5-min Rain = 0
KCO1 100120Z 04003KT 22/M08 A2979 RMK A01 T02231082  RH  012%=      5-min Rain = 0
KCO1 100121Z 05003KT 22/M08 A2979 RMK A01 T02231082  RH  012%=      5-min Rain = 0
KCO1 100122Z 06003KT 22/M08 A2979 RMK A01 T02231083  RH  012%=      5-min Rain = 0
KCO1 100123Z 08003KT 22/M08 A2979 RMK A01 T02221084  RH  012%=      5-min Rain = 0
KCO1 100124Z 08003KT 22/M08 A2979 RMK A01 T02211084  RH  012%=      5-min Rain = 0
KCO1 100125Z 08003KT 22/M08 A298 RMK A01 T02201084  RH  012%=      5-min Rain = 0
KCO1 100126Z 09004KT 22/M09 A298 RMK A01 T02191085  RH  012%=      5-min Rain = 0
KCO1 100127Z 09004KT 22/M09 A298 RMK A01 T02191086  RH  012%=      5-min Rain = 0
KCO1 100128Z 09004KT 22/M09 A298 RMK A01 T02201086  RH  012%=      5-min Rain = 0
KCO1 100129Z 12004KT 22/M08 A298 RMK A01 T02201084  RH  012%=      5-min Rain = 0
KCO1 100130Z 10004KT 22/M09 A298 RMK A01 T02171085  RH  012%=      5-min Rain = 0
KCO1 100131Z 11003KT 22/M09 A298 RMK A01 T02161086  RH  012%=      5-min Rain = 0
KCO1 100132Z 10003KT 21/M09 A298 RMK A01 T02141086  RH  013%=      5-min Rain = 0
KCO1 100133Z 09003KT 21/M09 A298 RMK A01 T02131086  RH  013%=      5-min Rain = 0
KCO1 100134Z 09004KT 21/M09 A298 RMK A01 T02131085  RH  013%=      5-min Rain = 0
KCO1 100135Z 09003KT 21/M08 A298 RMK A01 T02121084  RH  013%=      5-min Rain = 0
KCO1 100136Z 09003KT 21/M09 A298 RMK A01 T02121085  RH  013%=      5-min Rain = 0
KCO1 100137Z 08003KT 21/M09 A298 RMK A01 T02111085  RH  013%=      5-min Rain = 0
KCO1 100138Z 08003KT 21/M09 A298 RMK A01 T02111085  RH  013%=      5-min Rain = 0
KCO1 100139Z 09003KT 21/M09 A298 RMK A01 T02111085  RH  013%=      5-min Rain = 0
KCO1 100140Z 09004KT 21/M08 A298 RMK A01 T02111084  RH  013%=      5-min Rain = 0
KCO1 100141Z 09004KT 21/M09 A298 RMK A01 T02111085  RH  013%=      5-min Rain = 0
KCO1 100142Z 08004KT 21/M09 A2979 RMK A01 T02111085  RH  013%=      5-min Rain = 0
KCO1 100143Z 08004KT 21/M09 A2979 RMK A01 T02111085  RH  013%=      5-min Rain = 0
KCO1 100144Z 09005KT 21/M09 A2979 RMK A01 T02101085  RH  013%=      5-min Rain = 0
KCO1 100145Z 09006KT 21/M08 A2979 RMK A01 T02091084  RH  013%=      5-min Rain = 0
KCO1 100146Z 10006KT 21/M09 A298 RMK A01 T02081085  RH  013%=      5-min Rain = 0
KCO1 100147Z 10005KT 21/M09 A298 RMK A01 T02081086  RH  013%=      5-min Rain = 0
KCO1 100148Z 10004KT 21/M09 A298 RMK A01 T02081087  RH  013%=      5-min Rain = 0
KCO1 100149Z 10003KT 21/M09 A298 RMK A01 T02081088  RH  013%=      5-min Rain = 0
KCO1 100150Z 11003KT 21/M09 A298 RMK A01 T02081087  RH  013%=      5-min Rain = 0
KCO1 100151Z 11004KT 21/M09 A298 RMK A01 T02081088  RH  013%=      5-min Rain = 0
KCO1 100152Z 11004KT 21/M09 A298 RMK A01 T02081088  RH  013%=      5-min Rain = 0
KCO1 100153Z 11004KT 21/M09 A298 RMK A01 T02091089  RH  013%=      5-min Rain = 0
KCO1 100154Z 11004KT 21/M09 A298 RMK A01 T02091089  RH  013%=      5-min Rain = 0
KCO1 100155Z 11004KT 21/M09 A298 RMK A01 T02091088  RH  013%=      5-min Rain = 0
KCO1 100156Z 12004KT 21/M09 A298 RMK A01 T02091088  RH  013%=      5-min Rain = 0
KCO1 100157Z 13004KT 21/M09 A298 RMK A01 T02081088  RH  013%=      5-min Rain = 0
KCO1 100158Z 14005KT 21/M09 A298 RMK A01 T02071088  RH  013%=      5-min Rain = 0
KCO1 100159Z 13005KT 21/M09 A298 RMK A01 T02061088  RH  013%=      5-min Rain = 0
KCO1 100200Z 12005KT 21/M09 A298 RMK A01 T02051087  RH  013%=      5-min Rain = 0
KCO1 100201Z 11005KT 20/M09 A298 RMK A01 T02041087  RH  013%=      5-min Rain = 0
KCO1 100202Z 11005KT 20/M09 A298 RMK A01 T02031088  RH  013%=      5-min Rain = 0
KCO1 100203Z 12005KT 20/M09 A298 RMK A01 T02041088  RH  013%=      5-min Rain = 0
KCO1 100204Z 13004KT 20/M09 A298 RMK A01 T02041088  RH  013%=      5-min Rain = 0
KCO1 100205Z 14004KT 20/M09 A298 RMK A01 T02041088  RH  013%=      5-min Rain = 0
KCO1 100206Z 14004KT 21/M09 A298 RMK A01 T02051088  RH  013%=      5-min Rain = 0
KCO1 100207Z 13004KT 21/M09 A298 RMK A01 T02051087  RH  013%=      5-min Rain = 0
KCO1 100208Z 13003KT 21/M09 A298 RMK A01 T02051087  RH  013%=      5-min Rain = 0
KCO1 100209Z 12003KT 21/M09 A298 RMK A01 T02051087  RH  013%=      5-min Rain = 0
KCO1 100210Z 11004KT 20/M09 A298 RMK A01 T02041088  RH  013%=      5-min Rain = 0
KCO1 100211Z 10004KT 20/M09 A298 RMK A01 T02041089  RH  013%=      5-min Rain = 0
KCO1 100212Z 10005KT 21/M09 A298 RMK A01 T02051088  RH  013%=      5-min Rain = 0
KCO1 100213Z 10005KT 21/M09 A298 RMK A01 T02051089  RH  013%=      5-min Rain = 0
KCO1 100214Z 10006KT 21/M09 A298 RMK A01 T02061088  RH  013%=      5-min Rain = 0
KCO1 100215Z 10006KT 21/M09 A298 RMK A01 T02061088  RH  013%=      5-min Rain = 0
KCO1 100216Z 11006KT 21/M09 A298 RMK A01 T02061088  RH  013%=      5-min Rain = 0
KCO1 100217Z 11006KT 21/M09 A298 RMK A01 T02051088  RH  013%=      5-min Rain = 0
KCO1 100218Z 12005KT 20/M09 A298 RMK A01 T02041088  RH  013%=      5-min Rain = 0
KCO1 100219Z 12005KT 20/M09 A298 RMK A01 T02031089  RH  013%=      5-min Rain = 0
KCO1 100220Z 12004KT 20/M09 A298 RMK A01 T02031088  RH  013%=      5-min Rain = 0
KCO1 100221Z 13004KT 20/M09 A2981 RMK A01 T02021089  RH  013%=      5-min Rain = 0
KCO1 100222Z 13004KT 20/M09 A2981 RMK A01 T02011089  RH  013%=      5-min Rain = 0
KCO1 100223Z 14004KT 20/M09 A2981 RMK A01 T02011089  RH  013%=      5-min Rain = 0
KCO1 100224Z 16004KT 20/M09 A2981 RMK A01 T02001090  RH  013%=      5-min Rain = 0
KCO1 100225Z 21005KT 20/M09 A2981 RMK A01 T02001085  RH  014%=      5-min Rain = 0
KCO1 100226Z 20005KT 20/M08 A2981 RMK A01 T01991078  RH  015%=      5-min Rain = 0
KCO1 100227Z 19005KT 20/M08 A2981 RMK A01 T01981079  RH  015%=      5-min Rain = 0
KCO1 100228Z 18005KT 20/M08 A2981 RMK A01 T01981081  RH  014%=      5-min Rain = 0
KCO1 100229Z 17004KT 20/M08 A2981 RMK A01 T01991083  RH  014%=      5-min Rain = 0
KCO1 100230Z 17005KT 20/M08 A2981 RMK A01 T01991083  RH  014%=      5-min Rain = 0
KCO1 100231Z 16005KT 20/M09 A2981 RMK A01 T01991085  RH  014%=      5-min Rain = 0
KCO1 100232Z 17005KT 20/M09 A2981 RMK A01 T02011087  RH  013%=      5-min Rain = 0
KCO1 100233Z 18005KT 20/M09 A2981 RMK A01 T02031087  RH  013%=      5-min Rain = 0
KCO1 100234Z 19006KT 20/M09 A2981 RMK A01 T02041086  RH  013%=      5-min Rain = 0
KCO1 100235Z 19007KT 20/M09 A2981 RMK A01 T02021085  RH  014%=      5-min Rain = 0
KCO1 100236Z 19007KT 20/M08 A2981 RMK A01 T01991084  RH  014%=      5-min Rain = 0
KCO1 100237Z 19007KT 20/M08 A2981 RMK A01 T01961083  RH  014%=      5-min Rain = 0
KCO1 100238Z 19006KT 20/M08 A2981 RMK A01 T01951083  RH  015%=      5-min Rain = 0
KCO1 100239Z 18006KT 19/M08 A2981 RMK A01 T01931083  RH  015%=      5-min Rain = 0
KCO1 100240Z 20006KT 19/M08 A2981 RMK A01 T01921084  RH  015%=      5-min Rain = 0
KCO1 100241Z 20007KT 19/M08 A2981 RMK A01 T01911084  RH  015%=      5-min Rain = 0
KCO1 100242Z 19007KT 19/M08 A2981 RMK A01 T01901084  RH  015%=      5-min Rain = 0
KCO1 100243Z 19006KT 19/M08 A2981 RMK A01 T01891083  RH  015%=      5-min Rain = 0
KCO1 100244Z 18006KT 19/M08 A2981 RMK A01 T01861082  RH  015%=      5-min Rain = 0
KCO1 100245Z 17007KT 19/M08 A2981 RMK A01 T01851080  RH  016%=      5-min Rain = 0
KCO1 100246Z 17006KT 18/M08 A2981 RMK A01 T01831081  RH  016%=      5-min Rain = 0
KCO1 100247Z 17006KT 18/M08 A2981 RMK A01 T01811081  RH  016%=      5-min Rain = 0
KCO1 100248Z 18006KT 18/M08 A2981 RMK A01 T01791081  RH  016%=      5-min Rain = 0
KCO1 100249Z 18006KT 18/M08 A2981 RMK A01 T01781080  RH  016%=      5-min Rain = 0
KCO1 100250Z 18006KT 18/M08 A2981 RMK A01 T01761079  RH  017%=      5-min Rain = 0
KCO1 100251Z 19006KT 17/M08 A2981 RMK A01 T01741079  RH  017%=      5-min Rain = 0
KCO1 100252Z 19006KT 17/M08 A2981 RMK A01 T01741078  RH  017%=      5-min Rain = 0
KCO1 100253Z 20005KT 17/M08 A2981 RMK A01 T01731080  RH  017%=      5-min Rain = 0
KCO1 100254Z 19006KT 17/M07 A2981 RMK A01 T01731074  RH  018%=      5-min Rain = 0
KCO1 100255Z 18006KT 17/M07 A2981 RMK A01 T01741069  RH  018%=      5-min Rain = 0
KCO1 100256Z 18007KT 17/M07 A2981 RMK A01 T01731071  RH  018%=      5-min Rain = 0
KCO1 100257Z 18007KT 17/M08 A2981 RMK A01 T01721075  RH  018%=      5-min Rain = 0
KCO1 100258Z 17007KT 17/M08 A2981 RMK A01 T01721078  RH  017%=      5-min Rain = 0
KCO1 100259Z 17006KT 17/M08 A2981 RMK A01 T01721080  RH  017%=      5-min Rain = 0
KCO1 100300Z 17006KT 17/M08 A2981 RMK A01 T01721082  RH  017%=      5-min Rain = 0
KCO1 100301Z 17006KT 17/M08 A2981 RMK A01 T01731084  RH  017%=      5-min Rain = 0
KCO1 100302Z 17006KT 17/M09 A2982 RMK A01 T01731085  RH  016%=      5-min Rain = 0
KCO1 100303Z 17006KT 17/M09 A2982 RMK A01 T01731085  RH  016%=      5-min Rain = 0
KCO1 100304Z 18006KT 17/M09 A2982 RMK A01 T01731085  RH  016%=      5-min Rain = 0
KCO1 100305Z 17006KT 17/M08 A2982 RMK A01 T01721084  RH  017%=      5-min Rain = 0
KCO1 100306Z 17006KT 17/M08 A2982 RMK A01 T01701082  RH  017%=      5-min Rain = 0
KCO1 100307Z 17006KT 17/M08 A2982 RMK A01 T01691081  RH  017%=      5-min Rain = 0
KCO1 100308Z 17006KT 17/M08 A2982 RMK A01 T01671081  RH  017%=      5-min Rain = 0
KCO1 100309Z 18006KT 17/M08 A2982 RMK A01 T01671080  RH  018%=      5-min Rain = 0
KCO1 100310Z 18007KT 17/M08 A2982 RMK A01 T01651079  RH  018%=      5-min Rain = 0
KCO1 100311Z 18007KT 16/M08 A2982 RMK A01 T01641078  RH  018%=      5-min Rain = 0
KCO1 100312Z 18007KT 16/M08 A2982 RMK A01 T01631078  RH  018%=      5-min Rain = 0
KCO1 100313Z 18007KT 16/M08 A2982 RMK A01 T01621078  RH  019%=      5-min Rain = 0
KCO1 100314Z 18007KT 16/M08 A2982 RMK A01 T01611078  RH  019%=      5-min Rain = 0
KCO1 100315Z 18007KT 16/M08 A2982 RMK A01 T01601078  RH  019%=      5-min Rain = 0
KCO1 100316Z 18007KT 16/M08 A2982 RMK A01 T01601078  RH  019%=      5-min Rain = 0
KCO1 100317Z 18007KT 16/M08 A2982 RMK A01 T01591077  RH  019%=      5-min Rain = 0
KCO1 100318Z 18007KT 16/M08 A2982 RMK A01 T01591077  RH  019%=      5-min Rain = 0
KCO1 100319Z 17007KT 16/M08 A2982 RMK A01 T01581078  RH  019%=      5-min Rain = 0
KCO1 100320Z 17007KT 16/M08 A2982 RMK A01 T01581079  RH  019%=      5-min Rain = 0
KCO1 100321Z 17008KT 16/M08 A2982 RMK A01 T01571079  RH  019%=      5-min Rain = 0
KCO1 100322Z 17008KT 16/M08 A2982 RMK A01 T01571079  RH  019%=      5-min Rain = 0
KCO1 100323Z 17008KT 16/M08 A2982 RMK A01 T01561077  RH  019%=      5-min Rain = 0
KCO1 100324Z 17008KT 16/M08 A2982 RMK A01 T01551078  RH  019%=      5-min Rain = 0
KCO1 100325Z 17008KT 15/M08 A2982 RMK A01 T01541080  RH  019%=      5-min Rain = 0
KCO1 100326Z 17008KT 15/M08 A2982 RMK A01 T01541080  RH  019%=      5-min Rain = 0
KCO1 100327Z 17008KT 15/M08 A2982 RMK A01 T01531080  RH  019%=      5-min Rain = 0
KCO1 100328Z 17008KT 15/M08 A2982 RMK A01 T01531081  RH  019%=      5-min Rain = 0
KCO1 100329Z 17007KT 15/M08 A2982 RMK A01 T01541083  RH  019%=      5-min Rain = 0
KCO1 100330Z 17008KT 16/M08 A2982 RMK A01 T01561084  RH  018%=      5-min Rain = 0
KCO1 100331Z 17007KT 16/M09 A2982 RMK A01 T01571086  RH  018%=      5-min Rain = 0
KCO1 100332Z 17007KT 16/M09 A2982 RMK A01 T01571086  RH  018%=      5-min Rain = 0
KCO1 100333Z 17007KT 16/M09 A2982 RMK A01 T01561087  RH  018%=      5-min Rain = 0
KCO1 100334Z 17008KT 16/M09 A2982 RMK A01 T01561087  RH  018%=      5-min Rain = 0
KCO1 100335Z 17008KT 16/M09 A2982 RMK A01 T01561088  RH  018%=      5-min Rain = 0
KCO1 100336Z 17008KT 16/M09 A2982 RMK A01 T01551088  RH  018%=      5-min Rain = 0
KCO1 100337Z 17008KT 16/M09 A2982 RMK A01 T01551088  RH  018%=      5-min Rain = 0
KCO1 100338Z 17008KT 16/M09 A2982 RMK A01 T01551087  RH  018%=      5-min Rain = 0
KCO1 100339Z 17008KT 15/M09 A2982 RMK A01 T01541087  RH  018%=      5-min Rain = 0
KCO1 100340Z 17009KT 16/M09 A2982 RMK A01 T01551087  RH  018%=      5-min Rain = 0
KCO1 100341Z 17008KT 16/M09 A2982 RMK A01 T01561087  RH  018%=      5-min Rain = 0
KCO1 100342Z 17008KT 16/M09 A2982 RMK A01 T01561087  RH  018%=      5-min Rain = 0
KCO1 100343Z 17008KT 16/M09 A2982 RMK A01 T01571087  RH  018%=      5-min Rain = 0
KCO1 100344Z 16009KT 16/M09 A2982 RMK A01 T01581087  RH  018%=      5-min Rain = 0
KCO1 100345Z 16009KT 16/M09 A2982 RMK A01 T01591087  RH  018%=      5-min Rain = 0
KCO1 100346Z 16009KT 16/M09 A2982 RMK A01 T01601087  RH  017%=      5-min Rain = 0
KCO1 100347Z 16009KT 16/M09 A2982 RMK A01 T01621087  RH  017%=      5-min Rain = 0
KCO1 100348Z 16009KT 16/M09 A2982 RMK A01 T01631088  RH  017%=      5-min Rain = 0
KCO1 100349Z 17009KT 17/M09 A2982 RMK A01 T01651088  RH  017%=      5-min Rain = 0
KCO1 100350Z 16009KT 17/M09 A2982 RMK A01 T01661087  RH  017%=      5-min Rain = 0
KCO1 100351Z 16009KT 17/M09 A2982 RMK A01 T01671088  RH  017%=      5-min Rain = 0
KCO1 100352Z 16008KT 17/M09 A2982 RMK A01 T01671089  RH  017%=      5-min Rain = 0
KCO1 100353Z 16008KT 17/M09 A2982 RMK A01 T01681089  RH  016%=      5-min Rain = 0
KCO1 100354Z 17008KT 17/M09 A2982 RMK A01 T01691089  RH  016%=      5-min Rain = 0
KCO1 100355Z 17007KT 17/M09 A2982 RMK A01 T01691089  RH  016%=      5-min Rain = 0
KCO1 100356Z 17007KT 17/M09 A2982 RMK A01 T01671087  RH  017%=      5-min Rain = 0
KCO1 100357Z 18005KT 17/M08 A2982 RMK A01 T01651081  RH  018%=      5-min Rain = 0
KCO1 100358Z 18006KT 16/M08 A2982 RMK A01 T01601077  RH  019%=      5-min Rain = 0
KCO1 100359Z 17007KT 16/M08 A2982 RMK A01 T01581076  RH  019%=      5-min Rain = 0
KCO1 100400Z 17008KT 16/M08 A2982 RMK A01 T01581077  RH  019%=      5-min Rain = 0
KCO1 100401Z 17008KT 16/M08 A2982 RMK A01 T01581078  RH  019%=      5-min Rain = 0
KCO1 100402Z 17009KT 16/M08 A2982 RMK A01 T01581078  RH  019%=      5-min Rain = 0
KCO1 100403Z 17008KT 16/M08 A2982 RMK A01 T01581078  RH  019%=      5-min Rain = 0
KCO1 100404Z 17008KT 16/M08 A2982 RMK A01 T01581079  RH  019%=      5-min Rain = 0
KCO1 100405Z 17008KT 16/M08 A2982 RMK A01 T01581079  RH  019%=      5-min Rain = 0
KCO1 100406Z 17008KT 16/M08 A2982 RMK A01 T01581078  RH  019%=      5-min Rain = 0
KCO1 100407Z 17008KT 16/M08 A2982 RMK A01 T01581077  RH  019%=      5-min Rain = 0
KCO1 100408Z 17008KT 16/M08 A2982 RMK A01 T01571077  RH  019%=      5-min Rain = 0
KCO1 100409Z 17008KT 16/M08 A2982 RMK A01 T01551075  RH  020%=      5-min Rain = 0
KCO1 100410Z 17007KT 15/M07 A2982 RMK A01 T01531067  RH  021%=      5-min Rain = 0
KCO1 100411Z 17008KT 15/M07 A2982 RMK A01 T01511065  RH  022%=      5-min Rain = 0
KCO1 100412Z 17008KT 15/M07 A2982 RMK A01 T01491067  RH  022%=      5-min Rain = 0
KCO1 100413Z 17008KT 15/M07 A2982 RMK A01 T01471068  RH  022%=      5-min Rain = 0
KCO1 100414Z 17008KT 15/M07 A2982 RMK A01 T01451068  RH  022%=      5-min Rain = 0
KCO1 100415Z 17008KT 14/M07 A2982 RMK A01 T01431069  RH  022%=      5-min Rain = 0
KCO1 100416Z 17008KT 14/M07 A2982 RMK A01 T01431072  RH  022%=      5-min Rain = 0
KCO1 100417Z 17007KT 14/M07 A2982 RMK A01 T01421074  RH  022%=      5-min Rain = 0
KCO1 100418Z 17008KT 14/M08 A2982 RMK A01 T01421075  RH  022%=      5-min Rain = 0
KCO1 100419Z 16008KT 14/M08 A2982 RMK A01 T01411075  RH  022%=      5-min Rain = 0
KCO1 100420Z 16008KT 14/M08 A2982 RMK A01 T01411076  RH  022%=      5-min Rain = 0
KCO1 100421Z 16008KT 14/M08 A2982 RMK A01 T01401077  RH  021%=      5-min Rain = 0
KCO1 100422Z 17007KT 14/M08 A2982 RMK A01 T01401077  RH  021%=      5-min Rain = 0
KCO1 100423Z 17007KT 14/M08 A2982 RMK A01 T01401076  RH  022%=      5-min Rain = 0
KCO1 100424Z 17007KT 14/M07 A2982 RMK A01 T01391074  RH  022%=      5-min Rain = 0
KCO1 100425Z 17007KT 14/M07 A2982 RMK A01 T01401073  RH  022%=      5-min Rain = 0
KCO1 100426Z 17007KT 14/M07 A2982 RMK A01 T01391073  RH  022%=      5-min Rain = 0
KCO1 100427Z 17007KT 14/M07 A2982 RMK A01 T01381073  RH  022%=      5-min Rain = 0
KCO1 100428Z 17007KT 14/M07 A2982 RMK A01 T01381071  RH  023%=      5-min Rain = 0
KCO1 100429Z 17007KT 14/M07 A2982 RMK A01 T01381070  RH  023%=      5-min Rain = 0
KCO1 100430Z 17006KT 14/M07 A2982 RMK A01 T01371069  RH  023%=      5-min Rain = 0
KCO1 100431Z 17007KT 14/M07 A2982 RMK A01 T01371070  RH  023%=      5-min Rain = 0
KCO1 100432Z 17006KT 14/M07 A2982 RMK A01 T01371071  RH  023%=      5-min Rain = 0
KCO1 100433Z 20004KT 14/M07 A2982 RMK A01 T01371073  RH  023%=      5-min Rain = 0
KCO1 100434Z 21004KT 14/M07 A2982 RMK A01 T01381072  RH  023%=      5-min Rain = 0
KCO1 100435Z 20004KT 14/M07 A2982 RMK A01 T01381074  RH  022%=      5-min Rain = 0
KCO1 100436Z 20004KT 14/M08 A2982 RMK A01 T01381077  RH  022%=      5-min Rain = 0
KCO1 100437Z 20004KT 14/M08 A2982 RMK A01 T01381080  RH  021%=      5-min Rain = 0
KCO1 100438Z 20004KT 14/M08 A2982 RMK A01 T01391081  RH  021%=      5-min Rain = 0
KCO1 100439Z 19005KT 14/M08 A2982 RMK A01 T01391081  RH  021%=      5-min Rain = 0
KCO1 100440Z 20005KT 14/M08 A2982 RMK A01 T01391083  RH  021%=      5-min Rain = 0
KCO1 100441Z 22003KT 14/M09 A2982 RMK A01 T01391085  RH  020%=      5-min Rain = 0
KCO1 100442Z 22003KT 14/M09 A2982 RMK A01 T01391086  RH  020%=      5-min Rain = 0
KCO1 100443Z 24004KT 14/M09 A2982 RMK A01 T01391088  RH  020%=      5-min Rain = 0
KCO1 100444Z 23003KT 14/M09 A2982 RMK A01 T01391090  RH  020%=      5-min Rain = 0
KCO1 100445Z 20002KT 14/M09 A2982 RMK A01 T01391091  RH  019%=      5-min Rain = 0
KCO1 100446Z 19002KT 14/M09 A2983 RMK A01 T01391091  RH  019%=      5-min Rain = 0
KCO1 100447Z 18000KT 14/M09 A2982 RMK A01 T01371088  RH  020%=      5-min Rain = 0
KCO1 100448Z 00000KT 13/M09 A2982 RMK A01 T01321088  RH  021%=      5-min Rain = 0
KCO1 100449Z 31000KT 13/M09 A2983 RMK A01 T01291087  RH  021%=      5-min Rain = 0
KCO1 100450Z 32001KT 13/M09 A2983 RMK A01 T01271087  RH  022%=      5-min Rain = 0
KCO1 100451Z 32000KT 13/M09 A2983 RMK A01 T01281087  RH  021%=      5-min Rain = 0
KCO1 100452Z 19001KT 13/M09 A2983 RMK A01 T01321087  RH  021%=      5-min Rain = 0
KCO1 100453Z 23001KT 14/M09 A2983 RMK A01 T01361088  RH  020%=      5-min Rain = 0
KCO1 100454Z 21001KT 14/M09 A2983 RMK A01 T01371088  RH  020%=      5-min Rain = 0
KCO1 100455Z 02001KT 14/M09 A2983 RMK A01 T01351088  RH  020%=      5-min Rain = 0
KCO1 100456Z 02000KT 13/M09 A2983 RMK A01 T01311090  RH  021%=      5-min Rain = 0
KCO1 100457Z 00000KT 13/M09 A2983 RMK A01 T01271093  RH  021%=      5-min Rain = 0
KCO1 100458Z 00000KT 13/M09 A2983 RMK A01 T01261093  RH  021%=      5-min Rain = 0
KCO1 100459Z 02000KT 12/M09 A2983 RMK A01 T01241092  RH  021%=      5-min Rain = 0
KCO1 100500Z 02000KT 12/M09 A2983 RMK A01 T01231093  RH  021%=      5-min Rain = 0
KCO1 100501Z 00000KT 12/M09 A2983 RMK A01 T01221093  RH  021%=      5-min Rain = 0
KCO1 100502Z 00000KT 12/M09 A2983 RMK A01 T01221092  RH  021%=      5-min Rain = 0
KCO1 100503Z 24000KT 12/M09 A2983 RMK A01 T01211094  RH  021%=      5-min Rain = 0
KCO1 100504Z 22001KT 12/M09 A2983 RMK A01 T01221094  RH  021%=      5-min Rain = 0
KCO1 100505Z 23001KT 12/M09 A2983 RMK A01 T01221092  RH  021%=      5-min Rain = 0
KCO1 100506Z 20000KT 12/M09 A2983 RMK A01 T01221092  RH  022%=      5-min Rain = 0
KCO1 100507Z 18001KT 12/M09 A2983 RMK A01 T01221092  RH  021%=      5-min Rain = 0
KCO1 100508Z 21002KT 12/M09 A2983 RMK A01 T01231092  RH  021%=      5-min Rain = 0
KCO1 100509Z 23002KT 12/M09 A2983 RMK A01 T01221092  RH  021%=      5-min Rain = 0
KCO1 100510Z 22002KT 12/M09 A2983 RMK A01 T01221091  RH  022%=      5-min Rain = 0
KCO1 100511Z 22003KT 12/M09 A2983 RMK A01 T01231091  RH  022%=      5-min Rain = 0
KCO1 100512Z 19002KT 13/M09 A2983 RMK A01 T01261090  RH  021%=      5-min Rain = 0
KCO1 100513Z 16002KT 13/M09 A2983 RMK A01 T01261092  RH  021%=      5-min Rain = 0
KCO1 100514Z 18002KT 12/M09 A2983 RMK A01 T01241094  RH  021%=      5-min Rain = 0
KCO1 100515Z 19003KT 12/M10 A2983 RMK A01 T01211096  RH  021%=      5-min Rain = 0
KCO1 100516Z 20003KT 12/M10 A2983 RMK A01 T01171097  RH  021%=      5-min Rain = 0
KCO1 100517Z 20004KT 11/M10 A2983 RMK A01 T01141096  RH  022%=      5-min Rain = 0
KCO1 100518Z 17003KT 11/M09 A2983 RMK A01 T01141094  RH  022%=      5-min Rain = 0
KCO1 100519Z 16003KT 12/M10 A2983 RMK A01 T01151095  RH  022%=      5-min Rain = 0
KCO1 100520Z 17003KT 12/M10 A2983 RMK A01 T01161095  RH  022%=      5-min Rain = 0
KCO1 100521Z 18003KT 12/M10 A2983 RMK A01 T01161095  RH  022%=      5-min Rain = 0
KCO1 100522Z 18003KT 12/M09 A2983 RMK A01 T01151094  RH  022%=      5-min Rain = 0
KCO1 100523Z 20003KT 12/M09 A2983 RMK A01 T01151093  RH  022%=      5-min Rain = 0
KCO1 100524Z 18004KT 12/M09 A2983 RMK A01 T01161092  RH  022%=      5-min Rain = 0
KCO1 100525Z 17004KT 12/M09 A2983 RMK A01 T01191091  RH  022%=      5-min Rain = 0
KCO1 100526Z 18005KT 12/M09 A2983 RMK A01 T01191092  RH  022%=      5-min Rain = 0
KCO1 100527Z 18005KT 12/M09 A2983 RMK A01 T01191091  RH  022%=      5-min Rain = 0
KCO1 100528Z 17005KT 12/M09 A2983 RMK A01 T01181090  RH  023%=      5-min Rain = 0
KCO1 100529Z 17004KT 12/M09 A2983 RMK A01 T01161089  RH  023%=      5-min Rain = 0
KCO1 100530Z 18004KT 12/M09 A2983 RMK A01 T01151088  RH  023%=      5-min Rain = 0
KCO1 100531Z 18004KT 11/M09 A2983 RMK A01 T01141087  RH  024%=      5-min Rain = 0
KCO1 100532Z 17004KT 12/M09 A2983 RMK A01 T01151086  RH  024%=      5-min Rain = 0
KCO1 100533Z 18003KT 12/M08 A2983 RMK A01 T01161084  RH  024%=      5-min Rain = 0
KCO1 100534Z 18004KT 12/M08 A2983 RMK A01 T01161084  RH  024%=      5-min Rain = 0
KCO1 100535Z 17004KT 12/M08 A2983 RMK A01 T01171082  RH  024%=      5-min Rain = 0
KCO1 100536Z 17004KT 12/M08 A2983 RMK A01 T01171081  RH  024%=      5-min Rain = 0
KCO1 100537Z 18005KT 12/M08 A2983 RMK A01 T01171081  RH  024%=      5-min Rain = 0
KCO1 100538Z 18004KT 12/M08 A2983 RMK A01 T01181079  RH  024%=      5-min Rain = 0
KCO1 100539Z 18004KT 12/M08 A2983 RMK A01 T01181079  RH  024%=      5-min Rain = 0
KCO1 100540Z 18004KT 12/M08 A2983 RMK A01 T01181080  RH  024%=      5-min Rain = 0
KCO1 100541Z 18004KT 12/M08 A2983 RMK A01 T01161080  RH  025%=      5-min Rain = 0
KCO1 100542Z 18004KT 12/M08 A2983 RMK A01 T01161079  RH  025%=      5-min Rain = 0
KCO1 100543Z 19003KT 12/M08 A2983 RMK A01 T01151078  RH  025%=      5-min Rain = 0
KCO1 100544Z 19003KT 12/M08 A2983 RMK A01 T01151078  RH  025%=      5-min Rain = 0
KCO1 100545Z 19003KT 12/M08 A2983 RMK A01 T01161077  RH  025%=      5-min Rain = 0
KCO1 100546Z 19004KT 12/M08 A2983 RMK A01 T01171077  RH  025%=      5-min Rain = 0
KCO1 100547Z 19004KT 12/M08 A2983 RMK A01 T01171078  RH  025%=      5-min Rain = 0
KCO1 100548Z 20005KT 12/M08 A2983 RMK A01 T01181079  RH  024%=      5-min Rain = 0
KCO1 100549Z 20005KT 12/M08 A2983 RMK A01 T01191078  RH  024%=      5-min Rain = 0
KCO1 100550Z 20005KT 12/M08 A2983 RMK A01 T01201078  RH  024%=      5-min Rain = 0
KCO1 100551Z 20005KT 12/M08 A2983 RMK A01 T01201077  RH  024%=      5-min Rain = 0
KCO1 100552Z 20005KT 12/M08 A2983 RMK A01 T01201079  RH  024%=      5-min Rain = 0
KCO1 100553Z 21006KT 12/M08 A2983 RMK A01 T01211079  RH  024%=      5-min Rain = 0
KCO1 100554Z 21005KT 12/M08 A2983 RMK A01 T01211081  RH  024%=      5-min Rain = 0
KCO1 100555Z 21005KT 12/M08 A2983 RMK A01 T01221081  RH  023%=      5-min Rain = 0
KCO1 100556Z 21005KT 12/M08 A2983 RMK A01 T01241080  RH  023%=      5-min Rain = 0
KCO1 100557Z 21005KT 12/M08 A2983 RMK A01 T01231080  RH  023%=      5-min Rain = 0
KCO1 100558Z 21004KT 12/M08 A2983 RMK A01 T01221081  RH  023%=      5-min Rain = 0
KCO1 100559Z 21004KT 12/M08 A2983 RMK A01 T01211081  RH  024%=      5-min Rain = 0

Page generated in 0.0713 seconds.